<?xml version="1.0" encoding="UTF-8" standalone="no" ?>
<gpx xmlns="http://www.topografix.com/GPX/1/1" xmlns:xsi="http://www.w3.org/2001/XMLSchema-instance" xsi:schemaLocation="http://www.topografix.com/GPX/1/1 http://www.topografix.com/GPX/1/1/gpx.xsd" version="1.1" creator="VisuGPX - https://www.visugpx.com">
  <metadata>
    <name>lieuran / crozes 31/12/16</name>
    <desc><![CDATA[Départ de péret direction lieuran cabrieres et montée dans le bois, puis redescendre côté cabrieres et enfin direction le joli village des crozes.]]></desc>
  </metadata>
  <trk>
    <name><![CDATA[31-DEC-16 12:51:03]]></name>
    <trkseg>
      <trkpt lat="43.56989" lon="3.39756">
        <ele>104.92</ele>
        <time>2016-12-31T09:17:57Z</time>
      </trkpt>
      <trkpt lat="43.56989" lon="3.39758">
        <ele>106.36</ele>
        <time>2016-12-31T09:18:22Z</time>
      </trkpt>
      <trkpt lat="43.56988" lon="3.39757">
        <ele>107.32</ele>
        <time>2016-12-31T09:18:52Z</time>
      </trkpt>
      <trkpt lat="43.56988" lon="3.39759">
        <ele>104.92</ele>
        <time>2016-12-31T09:19:19Z</time>
      </trkpt>
      <trkpt lat="43.56989" lon="3.39763">
        <ele>107.32</ele>
        <time>2016-12-31T09:19:35Z</time>
      </trkpt>
      <trkpt lat="43.56989" lon="3.39773">
        <ele>108.29</ele>
        <time>2016-12-31T09:19:40Z</time>
      </trkpt>
      <trkpt lat="43.56995" lon="3.39775">
        <ele>107.81</ele>
        <time>2016-12-31T09:19:45Z</time>
      </trkpt>
      <trkpt lat="43.57013" lon="3.39761">
        <ele>110.21</ele>
        <time>2016-12-31T09:19:56Z</time>
      </trkpt>
      <trkpt lat="43.57021" lon="3.39756">
        <ele>111.65</ele>
        <time>2016-12-31T09:20:01Z</time>
      </trkpt>
      <trkpt lat="43.57026" lon="3.39748">
        <ele>112.61</ele>
        <time>2016-12-31T09:20:05Z</time>
      </trkpt>
      <trkpt lat="43.57029" lon="3.39746">
        <ele>112.13</ele>
        <time>2016-12-31T09:20:16Z</time>
      </trkpt>
      <trkpt lat="43.5703" lon="3.39746">
        <ele>111.65</ele>
        <time>2016-12-31T09:20:33Z</time>
      </trkpt>
      <trkpt lat="43.57033" lon="3.39745">
        <ele>111.17</ele>
        <time>2016-12-31T09:20:42Z</time>
      </trkpt>
      <trkpt lat="43.57034" lon="3.39745">
        <ele>111.17</ele>
        <time>2016-12-31T09:20:57Z</time>
      </trkpt>
      <trkpt lat="43.57035" lon="3.39745">
        <ele>111.17</ele>
        <time>2016-12-31T09:21:09Z</time>
      </trkpt>
      <trkpt lat="43.57054" lon="3.39732">
        <ele>112.13</ele>
        <time>2016-12-31T09:21:24Z</time>
      </trkpt>
      <trkpt lat="43.57064" lon="3.39723">
        <ele>113.57</ele>
        <time>2016-12-31T09:21:30Z</time>
      </trkpt>
      <trkpt lat="43.5708" lon="3.39728">
        <ele>113.57</ele>
        <time>2016-12-31T09:21:41Z</time>
      </trkpt>
      <trkpt lat="43.57083" lon="3.39732">
        <ele>113.57</ele>
        <time>2016-12-31T09:21:43Z</time>
      </trkpt>
      <trkpt lat="43.57103" lon="3.39769">
        <ele>112.61</ele>
        <time>2016-12-31T09:22:02Z</time>
      </trkpt>
      <trkpt lat="43.57126" lon="3.39792">
        <ele>113.57</ele>
        <time>2016-12-31T09:22:18Z</time>
      </trkpt>
      <trkpt lat="43.57128" lon="3.39793">
        <ele>113.57</ele>
        <time>2016-12-31T09:22:19Z</time>
      </trkpt>
      <trkpt lat="43.57154" lon="3.39809">
        <ele>116.94</ele>
        <time>2016-12-31T09:22:35Z</time>
      </trkpt>
      <trkpt lat="43.57171" lon="3.39813">
        <ele>118.86</ele>
        <time>2016-12-31T09:22:42Z</time>
      </trkpt>
      <trkpt lat="43.57184" lon="3.39813">
        <ele>118.38</ele>
        <time>2016-12-31T09:22:46Z</time>
      </trkpt>
      <trkpt lat="43.57193" lon="3.39821">
        <ele>117.42</ele>
        <time>2016-12-31T09:22:53Z</time>
      </trkpt>
      <trkpt lat="43.57206" lon="3.39824">
        <ele>116.94</ele>
        <time>2016-12-31T09:22:59Z</time>
      </trkpt>
      <trkpt lat="43.5723" lon="3.39824">
        <ele>118.38</ele>
        <time>2016-12-31T09:23:08Z</time>
      </trkpt>
      <trkpt lat="43.57234" lon="3.39825">
        <ele>118.38</ele>
        <time>2016-12-31T09:23:09Z</time>
      </trkpt>
      <trkpt lat="43.57251" lon="3.39826">
        <ele>118.86</ele>
        <time>2016-12-31T09:23:16Z</time>
      </trkpt>
      <trkpt lat="43.57274" lon="3.39824">
        <ele>118.38</ele>
        <time>2016-12-31T09:23:23Z</time>
      </trkpt>
      <trkpt lat="43.57296" lon="3.39829">
        <ele>118.86</ele>
        <time>2016-12-31T09:23:34Z</time>
      </trkpt>
      <trkpt lat="43.57323" lon="3.39827">
        <ele>122.71</ele>
        <time>2016-12-31T09:23:46Z</time>
      </trkpt>
      <trkpt lat="43.57342" lon="3.39839">
        <ele>122.71</ele>
        <time>2016-12-31T09:23:56Z</time>
      </trkpt>
      <trkpt lat="43.57354" lon="3.39871">
        <ele>123.67</ele>
        <time>2016-12-31T09:24:09Z</time>
      </trkpt>
      <trkpt lat="43.57352" lon="3.39906">
        <ele>124.15</ele>
        <time>2016-12-31T09:24:22Z</time>
      </trkpt>
      <trkpt lat="43.57351" lon="3.39933">
        <ele>124.15</ele>
        <time>2016-12-31T09:24:30Z</time>
      </trkpt>
      <trkpt lat="43.57352" lon="3.39967">
        <ele>124.15</ele>
        <time>2016-12-31T09:24:40Z</time>
      </trkpt>
      <trkpt lat="43.57353" lon="3.39973">
        <ele>124.63</ele>
        <time>2016-12-31T09:24:42Z</time>
      </trkpt>
      <trkpt lat="43.57375" lon="3.39986">
        <ele>124.63</ele>
        <time>2016-12-31T09:24:51Z</time>
      </trkpt>
      <trkpt lat="43.57377" lon="3.39987">
        <ele>124.63</ele>
        <time>2016-12-31T09:24:52Z</time>
      </trkpt>
      <trkpt lat="43.57402" lon="3.39988">
        <ele>126.07</ele>
        <time>2016-12-31T09:25:03Z</time>
      </trkpt>
      <trkpt lat="43.57409" lon="3.39991">
        <ele>125.59</ele>
        <time>2016-12-31T09:25:06Z</time>
      </trkpt>
      <trkpt lat="43.57421" lon="3.3999">
        <ele>125.59</ele>
        <time>2016-12-31T09:25:14Z</time>
      </trkpt>
      <trkpt lat="43.57426" lon="3.39994">
        <ele>125.59</ele>
        <time>2016-12-31T09:25:18Z</time>
      </trkpt>
      <trkpt lat="43.57427" lon="3.40014">
        <ele>125.11</ele>
        <time>2016-12-31T09:25:23Z</time>
      </trkpt>
      <trkpt lat="43.5742" lon="3.40073">
        <ele>122.71</ele>
        <time>2016-12-31T09:25:34Z</time>
      </trkpt>
      <trkpt lat="43.5739" lon="3.40148">
        <ele>117.42</ele>
        <time>2016-12-31T09:25:43Z</time>
      </trkpt>
      <trkpt lat="43.57401" lon="3.40174">
        <ele>115.98</ele>
        <time>2016-12-31T09:25:48Z</time>
      </trkpt>
      <trkpt lat="43.57428" lon="3.40185">
        <ele>117.9</ele>
        <time>2016-12-31T09:25:57Z</time>
      </trkpt>
      <trkpt lat="43.57449" lon="3.40213">
        <ele>119.34</ele>
        <time>2016-12-31T09:26:08Z</time>
      </trkpt>
      <trkpt lat="43.57472" lon="3.40242">
        <ele>119.82</ele>
        <time>2016-12-31T09:26:18Z</time>
      </trkpt>
      <trkpt lat="43.57505" lon="3.40283">
        <ele>121.74</ele>
        <time>2016-12-31T09:26:35Z</time>
      </trkpt>
      <trkpt lat="43.57523" lon="3.40301">
        <ele>122.71</ele>
        <time>2016-12-31T09:26:46Z</time>
      </trkpt>
      <trkpt lat="43.57552" lon="3.40306">
        <ele>126.07</ele>
        <time>2016-12-31T09:27:02Z</time>
      </trkpt>
      <trkpt lat="43.5758" lon="3.40348">
        <ele>126.07</ele>
        <time>2016-12-31T09:27:20Z</time>
      </trkpt>
      <trkpt lat="43.57591" lon="3.40403">
        <ele>124.15</ele>
        <time>2016-12-31T09:27:35Z</time>
      </trkpt>
      <trkpt lat="43.57616" lon="3.40474">
        <ele>123.19</ele>
        <time>2016-12-31T09:27:51Z</time>
      </trkpt>
      <trkpt lat="43.57633" lon="3.40528">
        <ele>124.15</ele>
        <time>2016-12-31T09:28:08Z</time>
      </trkpt>
      <trkpt lat="43.5765" lon="3.40595">
        <ele>122.22</ele>
        <time>2016-12-31T09:28:25Z</time>
      </trkpt>
      <trkpt lat="43.57641" lon="3.40686">
        <ele>119.34</ele>
        <time>2016-12-31T09:28:39Z</time>
      </trkpt>
      <trkpt lat="43.57612" lon="3.40776">
        <ele>115.98</ele>
        <time>2016-12-31T09:28:51Z</time>
      </trkpt>
      <trkpt lat="43.57609" lon="3.40823">
        <ele>115.01</ele>
        <time>2016-12-31T09:28:57Z</time>
      </trkpt>
      <trkpt lat="43.57621" lon="3.40869">
        <ele>115.01</ele>
        <time>2016-12-31T09:29:04Z</time>
      </trkpt>
      <trkpt lat="43.57643" lon="3.409">
        <ele>116.94</ele>
        <time>2016-12-31T09:29:12Z</time>
      </trkpt>
      <trkpt lat="43.57651" lon="3.40916">
        <ele>116.46</ele>
        <time>2016-12-31T09:29:15Z</time>
      </trkpt>
      <trkpt lat="43.57663" lon="3.40936">
        <ele>115.98</ele>
        <time>2016-12-31T09:29:19Z</time>
      </trkpt>
      <trkpt lat="43.57676" lon="3.40961">
        <ele>115.5</ele>
        <time>2016-12-31T09:29:24Z</time>
      </trkpt>
      <trkpt lat="43.57673" lon="3.41043">
        <ele>118.38</ele>
        <time>2016-12-31T09:29:40Z</time>
      </trkpt>
      <trkpt lat="43.57665" lon="3.41101">
        <ele>121.26</ele>
        <time>2016-12-31T09:29:55Z</time>
      </trkpt>
      <trkpt lat="43.57663" lon="3.41117">
        <ele>121.74</ele>
        <time>2016-12-31T09:29:59Z</time>
      </trkpt>
      <trkpt lat="43.5767" lon="3.41126">
        <ele>122.22</ele>
        <time>2016-12-31T09:30:03Z</time>
      </trkpt>
      <trkpt lat="43.5768" lon="3.41131">
        <ele>123.67</ele>
        <time>2016-12-31T09:30:09Z</time>
      </trkpt>
      <trkpt lat="43.57682" lon="3.41136">
        <ele>124.63</ele>
        <time>2016-12-31T09:30:12Z</time>
      </trkpt>
      <trkpt lat="43.57702" lon="3.41167">
        <ele>127.51</ele>
        <time>2016-12-31T09:30:27Z</time>
      </trkpt>
      <trkpt lat="43.57723" lon="3.41191">
        <ele>128.95</ele>
        <time>2016-12-31T09:30:40Z</time>
      </trkpt>
      <trkpt lat="43.57745" lon="3.41219">
        <ele>129.43</ele>
        <time>2016-12-31T09:30:54Z</time>
      </trkpt>
      <trkpt lat="43.57759" lon="3.4125">
        <ele>130.4</ele>
        <time>2016-12-31T09:31:07Z</time>
      </trkpt>
      <trkpt lat="43.57765" lon="3.41292">
        <ele>136.16</ele>
        <time>2016-12-31T09:31:24Z</time>
      </trkpt>
      <trkpt lat="43.57782" lon="3.41323">
        <ele>141.93</ele>
        <time>2016-12-31T09:31:40Z</time>
      </trkpt>
      <trkpt lat="43.57804" lon="3.4135">
        <ele>140.49</ele>
        <time>2016-12-31T09:31:54Z</time>
      </trkpt>
      <trkpt lat="43.57811" lon="3.41357">
        <ele>139.53</ele>
        <time>2016-12-31T09:31:58Z</time>
      </trkpt>
      <trkpt lat="43.57814" lon="3.41356">
        <ele>139.05</ele>
        <time>2016-12-31T09:32:07Z</time>
      </trkpt>
      <trkpt lat="43.57814" lon="3.41356">
        <ele>138.57</ele>
        <time>2016-12-31T09:32:35Z</time>
      </trkpt>
      <trkpt lat="43.57815" lon="3.41356">
        <ele>137.13</ele>
        <time>2016-12-31T09:33:01Z</time>
      </trkpt>
      <trkpt lat="43.57814" lon="3.41354">
        <ele>136.16</ele>
        <time>2016-12-31T09:33:31Z</time>
      </trkpt>
      <trkpt lat="43.57813" lon="3.41354">
        <ele>135.68</ele>
        <time>2016-12-31T09:34:11Z</time>
      </trkpt>
      <trkpt lat="43.57813" lon="3.41354">
        <ele>137.13</ele>
        <time>2016-12-31T09:34:38Z</time>
      </trkpt>
      <trkpt lat="43.57813" lon="3.41356">
        <ele>137.61</ele>
        <time>2016-12-31T09:34:42Z</time>
      </trkpt>
      <trkpt lat="43.57842" lon="3.41384">
        <ele>134.72</ele>
        <time>2016-12-31T09:34:54Z</time>
      </trkpt>
      <trkpt lat="43.57904" lon="3.41421">
        <ele>129.92</ele>
        <time>2016-12-31T09:35:02Z</time>
      </trkpt>
      <trkpt lat="43.57978" lon="3.41456">
        <ele>126.07</ele>
        <time>2016-12-31T09:35:11Z</time>
      </trkpt>
      <trkpt lat="43.57991" lon="3.41464">
        <ele>125.11</ele>
        <time>2016-12-31T09:35:13Z</time>
      </trkpt>
      <trkpt lat="43.58062" lon="3.41493">
        <ele>122.71</ele>
        <time>2016-12-31T09:35:23Z</time>
      </trkpt>
      <trkpt lat="43.58069" lon="3.41495">
        <ele>122.71</ele>
        <time>2016-12-31T09:35:24Z</time>
      </trkpt>
      <trkpt lat="43.5809" lon="3.41494">
        <ele>123.67</ele>
        <time>2016-12-31T09:35:28Z</time>
      </trkpt>
      <trkpt lat="43.58146" lon="3.41501">
        <ele>125.59</ele>
        <time>2016-12-31T09:35:43Z</time>
      </trkpt>
      <trkpt lat="43.58209" lon="3.41539">
        <ele>125.11</ele>
        <time>2016-12-31T09:36:01Z</time>
      </trkpt>
      <trkpt lat="43.58255" lon="3.41554">
        <ele>126.07</ele>
        <time>2016-12-31T09:36:16Z</time>
      </trkpt>
      <trkpt lat="43.58293" lon="3.41563">
        <ele>126.07</ele>
        <time>2016-12-31T09:36:30Z</time>
      </trkpt>
      <trkpt lat="43.58346" lon="3.41576">
        <ele>126.07</ele>
        <time>2016-12-31T09:36:45Z</time>
      </trkpt>
      <trkpt lat="43.58383" lon="3.41571">
        <ele>125.59</ele>
        <time>2016-12-31T09:36:59Z</time>
      </trkpt>
      <trkpt lat="43.58397" lon="3.41564">
        <ele>125.59</ele>
        <time>2016-12-31T09:37:05Z</time>
      </trkpt>
      <trkpt lat="43.58392" lon="3.41559">
        <ele>127.03</ele>
        <time>2016-12-31T09:37:14Z</time>
      </trkpt>
      <trkpt lat="43.58391" lon="3.41564">
        <ele>127.51</ele>
        <time>2016-12-31T09:37:19Z</time>
      </trkpt>
      <trkpt lat="43.58405" lon="3.41573">
        <ele>127.51</ele>
        <time>2016-12-31T09:37:28Z</time>
      </trkpt>
      <trkpt lat="43.58407" lon="3.41574">
        <ele>127.51</ele>
        <time>2016-12-31T09:37:29Z</time>
      </trkpt>
      <trkpt lat="43.58437" lon="3.41593">
        <ele>127.51</ele>
        <time>2016-12-31T09:37:44Z</time>
      </trkpt>
      <trkpt lat="43.58458" lon="3.41632">
        <ele>127.03</ele>
        <time>2016-12-31T09:37:56Z</time>
      </trkpt>
      <trkpt lat="43.58494" lon="3.41662">
        <ele>127.51</ele>
        <time>2016-12-31T09:38:13Z</time>
      </trkpt>
      <trkpt lat="43.5852" lon="3.41677">
        <ele>127.99</ele>
        <time>2016-12-31T09:38:26Z</time>
      </trkpt>
      <trkpt lat="43.5855" lon="3.41691">
        <ele>129.92</ele>
        <time>2016-12-31T09:38:44Z</time>
      </trkpt>
      <trkpt lat="43.58558" lon="3.41687">
        <ele>130.4</ele>
        <time>2016-12-31T09:38:49Z</time>
      </trkpt>
      <trkpt lat="43.58583" lon="3.4165">
        <ele>132.8</ele>
        <time>2016-12-31T09:39:07Z</time>
      </trkpt>
      <trkpt lat="43.58591" lon="3.41609">
        <ele>135.2</ele>
        <time>2016-12-31T09:39:24Z</time>
      </trkpt>
      <trkpt lat="43.58596" lon="3.41566">
        <ele>138.57</ele>
        <time>2016-12-31T09:39:42Z</time>
      </trkpt>
      <trkpt lat="43.58596" lon="3.41529">
        <ele>140.49</ele>
        <time>2016-12-31T09:39:58Z</time>
      </trkpt>
      <trkpt lat="43.58593" lon="3.415">
        <ele>139.53</ele>
        <time>2016-12-31T09:40:09Z</time>
      </trkpt>
      <trkpt lat="43.58589" lon="3.41492">
        <ele>139.53</ele>
        <time>2016-12-31T09:40:13Z</time>
      </trkpt>
      <trkpt lat="43.586" lon="3.41439">
        <ele>138.09</ele>
        <time>2016-12-31T09:40:28Z</time>
      </trkpt>
      <trkpt lat="43.58608" lon="3.41403">
        <ele>137.13</ele>
        <time>2016-12-31T09:40:37Z</time>
      </trkpt>
      <trkpt lat="43.58615" lon="3.4138">
        <ele>135.2</ele>
        <time>2016-12-31T09:40:41Z</time>
      </trkpt>
      <trkpt lat="43.58621" lon="3.41357">
        <ele>135.68</ele>
        <time>2016-12-31T09:40:45Z</time>
      </trkpt>
      <trkpt lat="43.58615" lon="3.4131">
        <ele>137.13</ele>
        <time>2016-12-31T09:40:56Z</time>
      </trkpt>
      <trkpt lat="43.58606" lon="3.41304">
        <ele>139.53</ele>
        <time>2016-12-31T09:41:00Z</time>
      </trkpt>
      <trkpt lat="43.58595" lon="3.41316">
        <ele>141.45</ele>
        <time>2016-12-31T09:41:05Z</time>
      </trkpt>
      <trkpt lat="43.58578" lon="3.41358">
        <ele>140.49</ele>
        <time>2016-12-31T09:41:14Z</time>
      </trkpt>
      <trkpt lat="43.58564" lon="3.4138">
        <ele>139.53</ele>
        <time>2016-12-31T09:41:18Z</time>
      </trkpt>
      <trkpt lat="43.58519" lon="3.41424">
        <ele>137.13</ele>
        <time>2016-12-31T09:41:28Z</time>
      </trkpt>
      <trkpt lat="43.58506" lon="3.41443">
        <ele>136.64</ele>
        <time>2016-12-31T09:41:32Z</time>
      </trkpt>
      <trkpt lat="43.58479" lon="3.41489">
        <ele>135.68</ele>
        <time>2016-12-31T09:41:44Z</time>
      </trkpt>
      <trkpt lat="43.58446" lon="3.41504">
        <ele>140.97</ele>
        <time>2016-12-31T09:41:58Z</time>
      </trkpt>
      <trkpt lat="43.58442" lon="3.41502">
        <ele>141.45</ele>
        <time>2016-12-31T09:42:00Z</time>
      </trkpt>
      <trkpt lat="43.58435" lon="3.41497">
        <ele>142.89</ele>
        <time>2016-12-31T09:42:04Z</time>
      </trkpt>
      <trkpt lat="43.58405" lon="3.41471">
        <ele>146.74</ele>
        <time>2016-12-31T09:42:22Z</time>
      </trkpt>
      <trkpt lat="43.58385" lon="3.41431">
        <ele>147.22</ele>
        <time>2016-12-31T09:42:38Z</time>
      </trkpt>
      <trkpt lat="43.58375" lon="3.414">
        <ele>150.58</ele>
        <time>2016-12-31T09:42:51Z</time>
      </trkpt>
      <trkpt lat="43.58371" lon="3.41364">
        <ele>153.47</ele>
        <time>2016-12-31T09:43:05Z</time>
      </trkpt>
      <trkpt lat="43.58363" lon="3.41326">
        <ele>156.83</ele>
        <time>2016-12-31T09:43:20Z</time>
      </trkpt>
      <trkpt lat="43.58355" lon="3.41282">
        <ele>158.27</ele>
        <time>2016-12-31T09:43:36Z</time>
      </trkpt>
      <trkpt lat="43.58349" lon="3.41239">
        <ele>159.72</ele>
        <time>2016-12-31T09:43:52Z</time>
      </trkpt>
      <trkpt lat="43.58346" lon="3.41203">
        <ele>161.64</ele>
        <time>2016-12-31T09:44:07Z</time>
      </trkpt>
      <trkpt lat="43.58343" lon="3.4117">
        <ele>163.08</ele>
        <time>2016-12-31T09:44:20Z</time>
      </trkpt>
      <trkpt lat="43.58342" lon="3.41119">
        <ele>165.48</ele>
        <time>2016-12-31T09:44:41Z</time>
      </trkpt>
      <trkpt lat="43.5834" lon="3.41083">
        <ele>166.93</ele>
        <time>2016-12-31T09:44:56Z</time>
      </trkpt>
      <trkpt lat="43.58336" lon="3.41039">
        <ele>169.81</ele>
        <time>2016-12-31T09:45:14Z</time>
      </trkpt>
      <trkpt lat="43.58336" lon="3.4102">
        <ele>171.25</ele>
        <time>2016-12-31T09:45:21Z</time>
      </trkpt>
      <trkpt lat="43.58346" lon="3.41028">
        <ele>172.21</ele>
        <time>2016-12-31T09:45:29Z</time>
      </trkpt>
      <trkpt lat="43.5836" lon="3.41061">
        <ele>175.1</ele>
        <time>2016-12-31T09:45:45Z</time>
      </trkpt>
      <trkpt lat="43.58377" lon="3.41091">
        <ele>177.5</ele>
        <time>2016-12-31T09:46:01Z</time>
      </trkpt>
      <trkpt lat="43.58393" lon="3.4112">
        <ele>179.42</ele>
        <time>2016-12-31T09:46:16Z</time>
      </trkpt>
      <trkpt lat="43.58412" lon="3.41162">
        <ele>181.35</ele>
        <time>2016-12-31T09:46:35Z</time>
      </trkpt>
      <trkpt lat="43.58429" lon="3.41197">
        <ele>185.67</ele>
        <time>2016-12-31T09:46:52Z</time>
      </trkpt>
      <trkpt lat="43.58447" lon="3.41207">
        <ele>188.56</ele>
        <time>2016-12-31T09:47:04Z</time>
      </trkpt>
      <trkpt lat="43.58454" lon="3.41208">
        <ele>189.04</ele>
        <time>2016-12-31T09:47:08Z</time>
      </trkpt>
      <trkpt lat="43.58482" lon="3.41202">
        <ele>191.92</ele>
        <time>2016-12-31T09:47:23Z</time>
      </trkpt>
      <trkpt lat="43.58491" lon="3.41198">
        <ele>193.36</ele>
        <time>2016-12-31T09:47:28Z</time>
      </trkpt>
      <trkpt lat="43.585" lon="3.41189">
        <ele>192.88</ele>
        <time>2016-12-31T09:47:34Z</time>
      </trkpt>
      <trkpt lat="43.58523" lon="3.41152">
        <ele>196.73</ele>
        <time>2016-12-31T09:47:50Z</time>
      </trkpt>
      <trkpt lat="43.58534" lon="3.41118">
        <ele>196.73</ele>
        <time>2016-12-31T09:48:03Z</time>
      </trkpt>
      <trkpt lat="43.58553" lon="3.4108">
        <ele>198.65</ele>
        <time>2016-12-31T09:48:19Z</time>
      </trkpt>
      <trkpt lat="43.58569" lon="3.4104">
        <ele>200.57</ele>
        <time>2016-12-31T09:48:36Z</time>
      </trkpt>
      <trkpt lat="43.58581" lon="3.40991">
        <ele>202.49</ele>
        <time>2016-12-31T09:48:54Z</time>
      </trkpt>
      <trkpt lat="43.58582" lon="3.40952">
        <ele>204.42</ele>
        <time>2016-12-31T09:49:07Z</time>
      </trkpt>
      <trkpt lat="43.58576" lon="3.40905">
        <ele>206.82</ele>
        <time>2016-12-31T09:49:23Z</time>
      </trkpt>
      <trkpt lat="43.58562" lon="3.40856">
        <ele>208.74</ele>
        <time>2016-12-31T09:49:41Z</time>
      </trkpt>
      <trkpt lat="43.58565" lon="3.40823">
        <ele>210.67</ele>
        <time>2016-12-31T09:49:54Z</time>
      </trkpt>
      <trkpt lat="43.5858" lon="3.40792">
        <ele>213.55</ele>
        <time>2016-12-31T09:50:08Z</time>
      </trkpt>
      <trkpt lat="43.58604" lon="3.4076">
        <ele>216.91</ele>
        <time>2016-12-31T09:50:25Z</time>
      </trkpt>
      <trkpt lat="43.58629" lon="3.40736">
        <ele>220.28</ele>
        <time>2016-12-31T09:50:40Z</time>
      </trkpt>
      <trkpt lat="43.5865" lon="3.40721">
        <ele>222.2</ele>
        <time>2016-12-31T09:50:53Z</time>
      </trkpt>
      <trkpt lat="43.58681" lon="3.40742">
        <ele>221.72</ele>
        <time>2016-12-31T09:51:10Z</time>
      </trkpt>
      <trkpt lat="43.58715" lon="3.40756">
        <ele>223.16</ele>
        <time>2016-12-31T09:51:26Z</time>
      </trkpt>
      <trkpt lat="43.58732" lon="3.4076">
        <ele>223.16</ele>
        <time>2016-12-31T09:51:33Z</time>
      </trkpt>
      <trkpt lat="43.58765" lon="3.40778">
        <ele>222.68</ele>
        <time>2016-12-31T09:51:47Z</time>
      </trkpt>
      <trkpt lat="43.58797" lon="3.40796">
        <ele>223.16</ele>
        <time>2016-12-31T09:52:01Z</time>
      </trkpt>
      <trkpt lat="43.58828" lon="3.40811">
        <ele>224.12</ele>
        <time>2016-12-31T09:52:15Z</time>
      </trkpt>
      <trkpt lat="43.58851" lon="3.40814">
        <ele>226.05</ele>
        <time>2016-12-31T09:52:27Z</time>
      </trkpt>
      <trkpt lat="43.58846" lon="3.40776">
        <ele>227.49</ele>
        <time>2016-12-31T09:52:42Z</time>
      </trkpt>
      <trkpt lat="43.58838" lon="3.40729">
        <ele>227.97</ele>
        <time>2016-12-31T09:52:57Z</time>
      </trkpt>
      <trkpt lat="43.58834" lon="3.40681">
        <ele>227.01</ele>
        <time>2016-12-31T09:53:12Z</time>
      </trkpt>
      <trkpt lat="43.58835" lon="3.40667">
        <ele>226.53</ele>
        <time>2016-12-31T09:53:15Z</time>
      </trkpt>
      <trkpt lat="43.58861" lon="3.40613">
        <ele>226.53</ele>
        <time>2016-12-31T09:53:30Z</time>
      </trkpt>
      <trkpt lat="43.58868" lon="3.40603">
        <ele>226.05</ele>
        <time>2016-12-31T09:53:33Z</time>
      </trkpt>
      <trkpt lat="43.58894" lon="3.40581">
        <ele>224.12</ele>
        <time>2016-12-31T09:53:39Z</time>
      </trkpt>
      <trkpt lat="43.58904" lon="3.40574">
        <ele>223.64</ele>
        <time>2016-12-31T09:53:41Z</time>
      </trkpt>
      <trkpt lat="43.58912" lon="3.40566">
        <ele>223.64</ele>
        <time>2016-12-31T09:53:43Z</time>
      </trkpt>
      <trkpt lat="43.58952" lon="3.40502">
        <ele>222.68</ele>
        <time>2016-12-31T09:53:56Z</time>
      </trkpt>
      <trkpt lat="43.5896" lon="3.40485">
        <ele>222.2</ele>
        <time>2016-12-31T09:53:59Z</time>
      </trkpt>
      <trkpt lat="43.58978" lon="3.40468">
        <ele>220.28</ele>
        <time>2016-12-31T09:54:03Z</time>
      </trkpt>
      <trkpt lat="43.59008" lon="3.40444">
        <ele>216.43</ele>
        <time>2016-12-31T09:54:08Z</time>
      </trkpt>
      <trkpt lat="43.5903" lon="3.40432">
        <ele>214.03</ele>
        <time>2016-12-31T09:54:11Z</time>
      </trkpt>
      <trkpt lat="43.59052" lon="3.40408">
        <ele>210.67</ele>
        <time>2016-12-31T09:54:15Z</time>
      </trkpt>
      <trkpt lat="43.59075" lon="3.40386">
        <ele>206.82</ele>
        <time>2016-12-31T09:54:22Z</time>
      </trkpt>
      <trkpt lat="43.59079" lon="3.4039">
        <ele>206.82</ele>
        <time>2016-12-31T09:54:23Z</time>
      </trkpt>
      <trkpt lat="43.59116" lon="3.40436">
        <ele>210.19</ele>
        <time>2016-12-31T09:54:37Z</time>
      </trkpt>
      <trkpt lat="43.5915" lon="3.40475">
        <ele>212.11</ele>
        <time>2016-12-31T09:54:52Z</time>
      </trkpt>
      <trkpt lat="43.59187" lon="3.40496">
        <ele>213.55</ele>
        <time>2016-12-31T09:55:08Z</time>
      </trkpt>
      <trkpt lat="43.59198" lon="3.40501">
        <ele>214.03</ele>
        <time>2016-12-31T09:55:15Z</time>
      </trkpt>
      <trkpt lat="43.59206" lon="3.40497">
        <ele>214.99</ele>
        <time>2016-12-31T09:55:20Z</time>
      </trkpt>
      <trkpt lat="43.59207" lon="3.40486">
        <ele>215.95</ele>
        <time>2016-12-31T09:55:25Z</time>
      </trkpt>
      <trkpt lat="43.59211" lon="3.40451">
        <ele>220.28</ele>
        <time>2016-12-31T09:55:40Z</time>
      </trkpt>
      <trkpt lat="43.59229" lon="3.40425">
        <ele>224.61</ele>
        <time>2016-12-31T09:55:55Z</time>
      </trkpt>
      <trkpt lat="43.59237" lon="3.40415">
        <ele>226.53</ele>
        <time>2016-12-31T09:56:02Z</time>
      </trkpt>
      <trkpt lat="43.59239" lon="3.40402">
        <ele>227.49</ele>
        <time>2016-12-31T09:56:09Z</time>
      </trkpt>
      <trkpt lat="43.59231" lon="3.40398">
        <ele>227.97</ele>
        <time>2016-12-31T09:56:16Z</time>
      </trkpt>
      <trkpt lat="43.59223" lon="3.40392">
        <ele>227.97</ele>
        <time>2016-12-31T09:56:22Z</time>
      </trkpt>
      <trkpt lat="43.59205" lon="3.40376">
        <ele>230.37</ele>
        <time>2016-12-31T09:56:36Z</time>
      </trkpt>
      <trkpt lat="43.59181" lon="3.40352">
        <ele>231.81</ele>
        <time>2016-12-31T09:56:55Z</time>
      </trkpt>
      <trkpt lat="43.59178" lon="3.40349">
        <ele>232.78</ele>
        <time>2016-12-31T09:57:00Z</time>
      </trkpt>
      <trkpt lat="43.59174" lon="3.40346">
        <ele>232.78</ele>
        <time>2016-12-31T09:57:04Z</time>
      </trkpt>
      <trkpt lat="43.59172" lon="3.40335">
        <ele>233.74</ele>
        <time>2016-12-31T09:57:10Z</time>
      </trkpt>
      <trkpt lat="43.59179" lon="3.40333">
        <ele>234.7</ele>
        <time>2016-12-31T09:57:15Z</time>
      </trkpt>
      <trkpt lat="43.59203" lon="3.40328">
        <ele>235.66</ele>
        <time>2016-12-31T09:57:29Z</time>
      </trkpt>
      <trkpt lat="43.59233" lon="3.40317">
        <ele>239.51</ele>
        <time>2016-12-31T09:57:47Z</time>
      </trkpt>
      <trkpt lat="43.59262" lon="3.40318">
        <ele>241.43</ele>
        <time>2016-12-31T09:58:02Z</time>
      </trkpt>
      <trkpt lat="43.59303" lon="3.40315">
        <ele>242.39</ele>
        <time>2016-12-31T09:58:20Z</time>
      </trkpt>
      <trkpt lat="43.59338" lon="3.40312">
        <ele>242.87</ele>
        <time>2016-12-31T09:58:36Z</time>
      </trkpt>
      <trkpt lat="43.59359" lon="3.40295">
        <ele>244.31</ele>
        <time>2016-12-31T09:58:45Z</time>
      </trkpt>
      <trkpt lat="43.59368" lon="3.40291">
        <ele>245.27</ele>
        <time>2016-12-31T09:58:49Z</time>
      </trkpt>
      <trkpt lat="43.59376" lon="3.40292">
        <ele>245.27</ele>
        <time>2016-12-31T09:58:53Z</time>
      </trkpt>
      <trkpt lat="43.59409" lon="3.40268">
        <ele>246.72</ele>
        <time>2016-12-31T09:59:10Z</time>
      </trkpt>
      <trkpt lat="43.59437" lon="3.40263">
        <ele>249.6</ele>
        <time>2016-12-31T09:59:24Z</time>
      </trkpt>
      <trkpt lat="43.59464" lon="3.40253">
        <ele>251.52</ele>
        <time>2016-12-31T09:59:39Z</time>
      </trkpt>
      <trkpt lat="43.59485" lon="3.40239">
        <ele>254.89</ele>
        <time>2016-12-31T09:59:52Z</time>
      </trkpt>
      <trkpt lat="43.59504" lon="3.40222">
        <ele>257.29</ele>
        <time>2016-12-31T10:00:07Z</time>
      </trkpt>
      <trkpt lat="43.5952" lon="3.40201">
        <ele>260.17</ele>
        <time>2016-12-31T10:00:20Z</time>
      </trkpt>
      <trkpt lat="43.59531" lon="3.40175">
        <ele>261.14</ele>
        <time>2016-12-31T10:00:32Z</time>
      </trkpt>
      <trkpt lat="43.59547" lon="3.40143">
        <ele>262.58</ele>
        <time>2016-12-31T10:00:46Z</time>
      </trkpt>
      <trkpt lat="43.59563" lon="3.40116">
        <ele>264.98</ele>
        <time>2016-12-31T10:00:57Z</time>
      </trkpt>
      <trkpt lat="43.59559" lon="3.40068">
        <ele>265.46</ele>
        <time>2016-12-31T10:01:13Z</time>
      </trkpt>
      <trkpt lat="43.5954" lon="3.40045">
        <ele>266.9</ele>
        <time>2016-12-31T10:01:26Z</time>
      </trkpt>
      <trkpt lat="43.59526" lon="3.40008">
        <ele>268.83</ele>
        <time>2016-12-31T10:01:40Z</time>
      </trkpt>
      <trkpt lat="43.5951" lon="3.39974">
        <ele>269.79</ele>
        <time>2016-12-31T10:01:52Z</time>
      </trkpt>
      <trkpt lat="43.5949" lon="3.39943">
        <ele>271.71</ele>
        <time>2016-12-31T10:02:07Z</time>
      </trkpt>
      <trkpt lat="43.59471" lon="3.39917">
        <ele>275.07</ele>
        <time>2016-12-31T10:02:22Z</time>
      </trkpt>
      <trkpt lat="43.59459" lon="3.39889">
        <ele>277.48</ele>
        <time>2016-12-31T10:02:36Z</time>
      </trkpt>
      <trkpt lat="43.59448" lon="3.39852">
        <ele>278.92</ele>
        <time>2016-12-31T10:02:53Z</time>
      </trkpt>
      <trkpt lat="43.5943" lon="3.39823">
        <ele>280.36</ele>
        <time>2016-12-31T10:03:08Z</time>
      </trkpt>
      <trkpt lat="43.59403" lon="3.39786">
        <ele>282.28</ele>
        <time>2016-12-31T10:03:28Z</time>
      </trkpt>
      <trkpt lat="43.59379" lon="3.39765">
        <ele>284.69</ele>
        <time>2016-12-31T10:03:44Z</time>
      </trkpt>
      <trkpt lat="43.59344" lon="3.39737">
        <ele>284.69</ele>
        <time>2016-12-31T10:04:03Z</time>
      </trkpt>
      <trkpt lat="43.59304" lon="3.39742">
        <ele>287.09</ele>
        <time>2016-12-31T10:04:17Z</time>
      </trkpt>
      <trkpt lat="43.59255" lon="3.39756">
        <ele>289.49</ele>
        <time>2016-12-31T10:04:34Z</time>
      </trkpt>
      <trkpt lat="43.59203" lon="3.39751">
        <ele>289.01</ele>
        <time>2016-12-31T10:04:49Z</time>
      </trkpt>
      <trkpt lat="43.5918" lon="3.39748">
        <ele>288.53</ele>
        <time>2016-12-31T10:04:54Z</time>
      </trkpt>
      <trkpt lat="43.59145" lon="3.39748">
        <ele>288.05</ele>
        <time>2016-12-31T10:05:03Z</time>
      </trkpt>
      <trkpt lat="43.59124" lon="3.39782">
        <ele>288.53</ele>
        <time>2016-12-31T10:05:11Z</time>
      </trkpt>
      <trkpt lat="43.59098" lon="3.39826">
        <ele>286.13</ele>
        <time>2016-12-31T10:05:20Z</time>
      </trkpt>
      <trkpt lat="43.59055" lon="3.39838">
        <ele>283.73</ele>
        <time>2016-12-31T10:05:28Z</time>
      </trkpt>
      <trkpt lat="43.59044" lon="3.39836">
        <ele>283.73</ele>
        <time>2016-12-31T10:05:30Z</time>
      </trkpt>
      <trkpt lat="43.59026" lon="3.39842">
        <ele>283.25</ele>
        <time>2016-12-31T10:05:33Z</time>
      </trkpt>
      <trkpt lat="43.58989" lon="3.39823">
        <ele>282.28</ele>
        <time>2016-12-31T10:05:41Z</time>
      </trkpt>
      <trkpt lat="43.5898" lon="3.39812">
        <ele>282.28</ele>
        <time>2016-12-31T10:05:44Z</time>
      </trkpt>
      <trkpt lat="43.58936" lon="3.39803">
        <ele>280.84</ele>
        <time>2016-12-31T10:05:54Z</time>
      </trkpt>
      <trkpt lat="43.58917" lon="3.39807">
        <ele>281.32</ele>
        <time>2016-12-31T10:05:58Z</time>
      </trkpt>
      <trkpt lat="43.58829" lon="3.39837">
        <ele>282.77</ele>
        <time>2016-12-31T10:06:18Z</time>
      </trkpt>
      <trkpt lat="43.58735" lon="3.3984">
        <ele>282.28</ele>
        <time>2016-12-31T10:06:37Z</time>
      </trkpt>
      <trkpt lat="43.5871" lon="3.3984">
        <ele>282.28</ele>
        <time>2016-12-31T10:06:42Z</time>
      </trkpt>
      <trkpt lat="43.58648" lon="3.39838">
        <ele>282.77</ele>
        <time>2016-12-31T10:06:54Z</time>
      </trkpt>
      <trkpt lat="43.58628" lon="3.39842">
        <ele>282.77</ele>
        <time>2016-12-31T10:06:58Z</time>
      </trkpt>
      <trkpt lat="43.58559" lon="3.39901">
        <ele>284.69</ele>
        <time>2016-12-31T10:07:14Z</time>
      </trkpt>
      <trkpt lat="43.58495" lon="3.39927">
        <ele>285.65</ele>
        <time>2016-12-31T10:07:28Z</time>
      </trkpt>
      <trkpt lat="43.58476" lon="3.3993">
        <ele>286.13</ele>
        <time>2016-12-31T10:07:32Z</time>
      </trkpt>
      <trkpt lat="43.58452" lon="3.39927">
        <ele>285.65</ele>
        <time>2016-12-31T10:07:37Z</time>
      </trkpt>
      <trkpt lat="43.58424" lon="3.39933">
        <ele>285.17</ele>
        <time>2016-12-31T10:07:42Z</time>
      </trkpt>
      <trkpt lat="43.58411" lon="3.3994">
        <ele>283.25</ele>
        <time>2016-12-31T10:07:45Z</time>
      </trkpt>
      <trkpt lat="43.58394" lon="3.39905">
        <ele>278.92</ele>
        <time>2016-12-31T10:07:51Z</time>
      </trkpt>
      <trkpt lat="43.58397" lon="3.39897">
        <ele>278.44</ele>
        <time>2016-12-31T10:07:52Z</time>
      </trkpt>
      <trkpt lat="43.58429" lon="3.39829">
        <ele>272.67</ele>
        <time>2016-12-31T10:08:00Z</time>
      </trkpt>
      <trkpt lat="43.58416" lon="3.39789">
        <ele>267.38</ele>
        <time>2016-12-31T10:08:06Z</time>
      </trkpt>
      <trkpt lat="43.58395" lon="3.39775">
        <ele>265.94</ele>
        <time>2016-12-31T10:08:09Z</time>
      </trkpt>
      <trkpt lat="43.58374" lon="3.39729">
        <ele>261.62</ele>
        <time>2016-12-31T10:08:14Z</time>
      </trkpt>
      <trkpt lat="43.58369" lon="3.39648">
        <ele>255.85</ele>
        <time>2016-12-31T10:08:20Z</time>
      </trkpt>
      <trkpt lat="43.5839" lon="3.39588">
        <ele>251.52</ele>
        <time>2016-12-31T10:08:26Z</time>
      </trkpt>
      <trkpt lat="43.5839" lon="3.39552">
        <ele>247.2</ele>
        <time>2016-12-31T10:08:30Z</time>
      </trkpt>
      <trkpt lat="43.58373" lon="3.39517">
        <ele>242.87</ele>
        <time>2016-12-31T10:08:33Z</time>
      </trkpt>
      <trkpt lat="43.58358" lon="3.39465">
        <ele>238.54</ele>
        <time>2016-12-31T10:08:37Z</time>
      </trkpt>
      <trkpt lat="43.58331" lon="3.39417">
        <ele>237.58</ele>
        <time>2016-12-31T10:08:42Z</time>
      </trkpt>
      <trkpt lat="43.58298" lon="3.39386">
        <ele>236.62</ele>
        <time>2016-12-31T10:08:47Z</time>
      </trkpt>
      <trkpt lat="43.58287" lon="3.39374">
        <ele>235.66</ele>
        <time>2016-12-31T10:08:49Z</time>
      </trkpt>
      <trkpt lat="43.58295" lon="3.39343">
        <ele>232.3</ele>
        <time>2016-12-31T10:08:55Z</time>
      </trkpt>
      <trkpt lat="43.58298" lon="3.39335">
        <ele>231.81</ele>
        <time>2016-12-31T10:08:56Z</time>
      </trkpt>
      <trkpt lat="43.58305" lon="3.39307">
        <ele>230.85</ele>
        <time>2016-12-31T10:08:59Z</time>
      </trkpt>
      <trkpt lat="43.58318" lon="3.39281">
        <ele>228.93</ele>
        <time>2016-12-31T10:09:02Z</time>
      </trkpt>
      <trkpt lat="43.58375" lon="3.39213">
        <ele>224.61</ele>
        <time>2016-12-31T10:09:10Z</time>
      </trkpt>
      <trkpt lat="43.58406" lon="3.39147">
        <ele>221.24</ele>
        <time>2016-12-31T10:09:16Z</time>
      </trkpt>
      <trkpt lat="43.58429" lon="3.39068">
        <ele>216.91</ele>
        <time>2016-12-31T10:09:23Z</time>
      </trkpt>
      <trkpt lat="43.58455" lon="3.38979">
        <ele>210.67</ele>
        <time>2016-12-31T10:09:30Z</time>
      </trkpt>
      <trkpt lat="43.58487" lon="3.38903">
        <ele>204.9</ele>
        <time>2016-12-31T10:09:37Z</time>
      </trkpt>
      <trkpt lat="43.58512" lon="3.38842">
        <ele>202.49</ele>
        <time>2016-12-31T10:09:44Z</time>
      </trkpt>
      <trkpt lat="43.58513" lon="3.38819">
        <ele>201.05</ele>
        <time>2016-12-31T10:09:46Z</time>
      </trkpt>
      <trkpt lat="43.58518" lon="3.38751">
        <ele>197.69</ele>
        <time>2016-12-31T10:09:52Z</time>
      </trkpt>
      <trkpt lat="43.58514" lon="3.38694">
        <ele>195.77</ele>
        <time>2016-12-31T10:09:57Z</time>
      </trkpt>
      <trkpt lat="43.58503" lon="3.38611">
        <ele>192.88</ele>
        <time>2016-12-31T10:10:04Z</time>
      </trkpt>
      <trkpt lat="43.58495" lon="3.38563">
        <ele>190.96</ele>
        <time>2016-12-31T10:10:08Z</time>
      </trkpt>
      <trkpt lat="43.58493" lon="3.38528">
        <ele>190.48</ele>
        <time>2016-12-31T10:10:11Z</time>
      </trkpt>
      <trkpt lat="43.58479" lon="3.38487">
        <ele>191.44</ele>
        <time>2016-12-31T10:10:16Z</time>
      </trkpt>
      <trkpt lat="43.58469" lon="3.38477">
        <ele>191.92</ele>
        <time>2016-12-31T10:10:18Z</time>
      </trkpt>
      <trkpt lat="43.58433" lon="3.38451">
        <ele>193.84</ele>
        <time>2016-12-31T10:10:26Z</time>
      </trkpt>
      <trkpt lat="43.58435" lon="3.38438">
        <ele>193.84</ele>
        <time>2016-12-31T10:10:28Z</time>
      </trkpt>
      <trkpt lat="43.58441" lon="3.3839">
        <ele>190.96</ele>
        <time>2016-12-31T10:10:34Z</time>
      </trkpt>
      <trkpt lat="43.58428" lon="3.38283">
        <ele>184.23</ele>
        <time>2016-12-31T10:10:46Z</time>
      </trkpt>
      <trkpt lat="43.58412" lon="3.38233">
        <ele>176.54</ele>
        <time>2016-12-31T10:10:53Z</time>
      </trkpt>
      <trkpt lat="43.5841" lon="3.38219">
        <ele>174.14</ele>
        <time>2016-12-31T10:10:55Z</time>
      </trkpt>
      <trkpt lat="43.58405" lon="3.3819">
        <ele>171.25</ele>
        <time>2016-12-31T10:10:59Z</time>
      </trkpt>
      <trkpt lat="43.58386" lon="3.38167">
        <ele>170.77</ele>
        <time>2016-12-31T10:11:04Z</time>
      </trkpt>
      <trkpt lat="43.58368" lon="3.38141">
        <ele>170.77</ele>
        <time>2016-12-31T10:11:10Z</time>
      </trkpt>
      <trkpt lat="43.5836" lon="3.38126">
        <ele>170.77</ele>
        <time>2016-12-31T10:11:13Z</time>
      </trkpt>
      <trkpt lat="43.58351" lon="3.38098">
        <ele>170.77</ele>
        <time>2016-12-31T10:11:18Z</time>
      </trkpt>
      <trkpt lat="43.58346" lon="3.3807">
        <ele>171.25</ele>
        <time>2016-12-31T10:11:23Z</time>
      </trkpt>
      <trkpt lat="43.58332" lon="3.38043">
        <ele>169.33</ele>
        <time>2016-12-31T10:11:28Z</time>
      </trkpt>
      <trkpt lat="43.58326" lon="3.38016">
        <ele>166.45</ele>
        <time>2016-12-31T10:11:32Z</time>
      </trkpt>
      <trkpt lat="43.58322" lon="3.3798">
        <ele>165.48</ele>
        <time>2016-12-31T10:11:37Z</time>
      </trkpt>
      <trkpt lat="43.58311" lon="3.37935">
        <ele>164.52</ele>
        <time>2016-12-31T10:11:44Z</time>
      </trkpt>
      <trkpt lat="43.58246" lon="3.37876">
        <ele>167.41</ele>
        <time>2016-12-31T10:11:59Z</time>
      </trkpt>
      <trkpt lat="43.5821" lon="3.37839">
        <ele>169.81</ele>
        <time>2016-12-31T10:12:12Z</time>
      </trkpt>
      <trkpt lat="43.58171" lon="3.37805">
        <ele>168.85</ele>
        <time>2016-12-31T10:12:26Z</time>
      </trkpt>
      <trkpt lat="43.58152" lon="3.37763">
        <ele>170.29</ele>
        <time>2016-12-31T10:12:37Z</time>
      </trkpt>
      <trkpt lat="43.58145" lon="3.3775">
        <ele>169.33</ele>
        <time>2016-12-31T10:12:40Z</time>
      </trkpt>
      <trkpt lat="43.58138" lon="3.3774">
        <ele>168.85</ele>
        <time>2016-12-31T10:12:42Z</time>
      </trkpt>
      <trkpt lat="43.5812" lon="3.3769">
        <ele>165.48</ele>
        <time>2016-12-31T10:12:51Z</time>
      </trkpt>
      <trkpt lat="43.58129" lon="3.37628">
        <ele>163.08</ele>
        <time>2016-12-31T10:12:59Z</time>
      </trkpt>
      <trkpt lat="43.58106" lon="3.37573">
        <ele>159.24</ele>
        <time>2016-12-31T10:13:07Z</time>
      </trkpt>
      <trkpt lat="43.58102" lon="3.37565">
        <ele>158.75</ele>
        <time>2016-12-31T10:13:08Z</time>
      </trkpt>
      <trkpt lat="43.58084" lon="3.37538">
        <ele>155.87</ele>
        <time>2016-12-31T10:13:12Z</time>
      </trkpt>
      <trkpt lat="43.58036" lon="3.37462">
        <ele>146.26</ele>
        <time>2016-12-31T10:13:20Z</time>
      </trkpt>
      <trkpt lat="43.58016" lon="3.37402">
        <ele>140.01</ele>
        <time>2016-12-31T10:13:24Z</time>
      </trkpt>
      <trkpt lat="43.58" lon="3.37351">
        <ele>135.68</ele>
        <time>2016-12-31T10:13:28Z</time>
      </trkpt>
      <trkpt lat="43.57953" lon="3.3731">
        <ele>134.24</ele>
        <time>2016-12-31T10:13:36Z</time>
      </trkpt>
      <trkpt lat="43.57861" lon="3.37247">
        <ele>135.68</ele>
        <time>2016-12-31T10:13:53Z</time>
      </trkpt>
      <trkpt lat="43.57779" lon="3.37177">
        <ele>130.88</ele>
        <time>2016-12-31T10:14:06Z</time>
      </trkpt>
      <trkpt lat="43.57769" lon="3.37145">
        <ele>127.99</ele>
        <time>2016-12-31T10:14:10Z</time>
      </trkpt>
      <trkpt lat="43.57779" lon="3.37053">
        <ele>120.3</ele>
        <time>2016-12-31T10:14:17Z</time>
      </trkpt>
      <trkpt lat="43.57786" lon="3.3702">
        <ele>118.38</ele>
        <time>2016-12-31T10:14:19Z</time>
      </trkpt>
      <trkpt lat="43.57806" lon="3.36934">
        <ele>119.82</ele>
        <time>2016-12-31T10:14:25Z</time>
      </trkpt>
      <trkpt lat="43.57802" lon="3.36843">
        <ele>122.71</ele>
        <time>2016-12-31T10:14:33Z</time>
      </trkpt>
      <trkpt lat="43.57774" lon="3.36728">
        <ele>118.38</ele>
        <time>2016-12-31T10:14:44Z</time>
      </trkpt>
      <trkpt lat="43.57781" lon="3.36686">
        <ele>116.94</ele>
        <time>2016-12-31T10:14:49Z</time>
      </trkpt>
      <trkpt lat="43.57825" lon="3.36613">
        <ele>115.01</ele>
        <time>2016-12-31T10:14:58Z</time>
      </trkpt>
      <trkpt lat="43.57836" lon="3.36561">
        <ele>115.5</ele>
        <time>2016-12-31T10:15:04Z</time>
      </trkpt>
      <trkpt lat="43.57874" lon="3.36532">
        <ele>113.57</ele>
        <time>2016-12-31T10:15:11Z</time>
      </trkpt>
      <trkpt lat="43.57894" lon="3.36532">
        <ele>113.09</ele>
        <time>2016-12-31T10:15:14Z</time>
      </trkpt>
      <trkpt lat="43.57914" lon="3.36498">
        <ele>109.73</ele>
        <time>2016-12-31T10:15:20Z</time>
      </trkpt>
      <trkpt lat="43.5791" lon="3.36487">
        <ele>109.25</ele>
        <time>2016-12-31T10:15:21Z</time>
      </trkpt>
      <trkpt lat="43.57897" lon="3.3646">
        <ele>107.81</ele>
        <time>2016-12-31T10:15:24Z</time>
      </trkpt>
      <trkpt lat="43.57885" lon="3.36403">
        <ele>110.21</ele>
        <time>2016-12-31T10:15:33Z</time>
      </trkpt>
      <trkpt lat="43.57881" lon="3.36388">
        <ele>114.05</ele>
        <time>2016-12-31T10:15:41Z</time>
      </trkpt>
      <trkpt lat="43.57886" lon="3.364">
        <ele>112.61</ele>
        <time>2016-12-31T10:15:46Z</time>
      </trkpt>
      <trkpt lat="43.57893" lon="3.36427">
        <ele>112.13</ele>
        <time>2016-12-31T10:15:58Z</time>
      </trkpt>
      <trkpt lat="43.57895" lon="3.36422">
        <ele>112.13</ele>
        <time>2016-12-31T10:16:02Z</time>
      </trkpt>
      <trkpt lat="43.5788" lon="3.3638">
        <ele>115.5</ele>
        <time>2016-12-31T10:16:17Z</time>
      </trkpt>
      <trkpt lat="43.57855" lon="3.36359">
        <ele>115.01</ele>
        <time>2016-12-31T10:16:28Z</time>
      </trkpt>
      <trkpt lat="43.5786" lon="3.36337">
        <ele>115.98</ele>
        <time>2016-12-31T10:16:38Z</time>
      </trkpt>
      <trkpt lat="43.57897" lon="3.36309">
        <ele>119.34</ele>
        <time>2016-12-31T10:16:56Z</time>
      </trkpt>
      <trkpt lat="43.57921" lon="3.36284">
        <ele>121.26</ele>
        <time>2016-12-31T10:17:10Z</time>
      </trkpt>
      <trkpt lat="43.57942" lon="3.36243">
        <ele>123.67</ele>
        <time>2016-12-31T10:17:27Z</time>
      </trkpt>
      <trkpt lat="43.57936" lon="3.36237">
        <ele>124.63</ele>
        <time>2016-12-31T10:17:32Z</time>
      </trkpt>
      <trkpt lat="43.5791" lon="3.3624">
        <ele>127.03</ele>
        <time>2016-12-31T10:17:46Z</time>
      </trkpt>
      <trkpt lat="43.57881" lon="3.36227">
        <ele>128.47</ele>
        <time>2016-12-31T10:18:00Z</time>
      </trkpt>
      <trkpt lat="43.57859" lon="3.36201">
        <ele>128.95</ele>
        <time>2016-12-31T10:18:14Z</time>
      </trkpt>
      <trkpt lat="43.57856" lon="3.36195">
        <ele>129.43</ele>
        <time>2016-12-31T10:18:17Z</time>
      </trkpt>
      <trkpt lat="43.57858" lon="3.36184">
        <ele>129.92</ele>
        <time>2016-12-31T10:18:23Z</time>
      </trkpt>
      <trkpt lat="43.57878" lon="3.36159">
        <ele>133.76</ele>
        <time>2016-12-31T10:18:40Z</time>
      </trkpt>
      <trkpt lat="43.57903" lon="3.36153">
        <ele>137.61</ele>
        <time>2016-12-31T10:18:56Z</time>
      </trkpt>
      <trkpt lat="43.57927" lon="3.36146">
        <ele>141.93</ele>
        <time>2016-12-31T10:19:10Z</time>
      </trkpt>
      <trkpt lat="43.57948" lon="3.3612">
        <ele>144.34</ele>
        <time>2016-12-31T10:19:25Z</time>
      </trkpt>
      <trkpt lat="43.57974" lon="3.36074">
        <ele>144.82</ele>
        <time>2016-12-31T10:19:40Z</time>
      </trkpt>
      <trkpt lat="43.58008" lon="3.36012">
        <ele>145.78</ele>
        <time>2016-12-31T10:20:00Z</time>
      </trkpt>
      <trkpt lat="43.58033" lon="3.35964">
        <ele>148.18</ele>
        <time>2016-12-31T10:20:16Z</time>
      </trkpt>
      <trkpt lat="43.58054" lon="3.35923">
        <ele>152.03</ele>
        <time>2016-12-31T10:20:34Z</time>
      </trkpt>
      <trkpt lat="43.58068" lon="3.35892">
        <ele>154.43</ele>
        <time>2016-12-31T10:20:48Z</time>
      </trkpt>
      <trkpt lat="43.58083" lon="3.35858">
        <ele>157.79</ele>
        <time>2016-12-31T10:21:04Z</time>
      </trkpt>
      <trkpt lat="43.58107" lon="3.35808">
        <ele>163.56</ele>
        <time>2016-12-31T10:21:26Z</time>
      </trkpt>
      <trkpt lat="43.58122" lon="3.35765">
        <ele>166.45</ele>
        <time>2016-12-31T10:21:43Z</time>
      </trkpt>
      <trkpt lat="43.58138" lon="3.35707">
        <ele>168.85</ele>
        <time>2016-12-31T10:22:03Z</time>
      </trkpt>
      <trkpt lat="43.5816" lon="3.35658">
        <ele>167.89</ele>
        <time>2016-12-31T10:22:19Z</time>
      </trkpt>
      <trkpt lat="43.58177" lon="3.35608">
        <ele>166.93</ele>
        <time>2016-12-31T10:22:33Z</time>
      </trkpt>
      <trkpt lat="43.58183" lon="3.35554">
        <ele>164.52</ele>
        <time>2016-12-31T10:22:44Z</time>
      </trkpt>
      <trkpt lat="43.58191" lon="3.35495">
        <ele>163.08</ele>
        <time>2016-12-31T10:22:53Z</time>
      </trkpt>
      <trkpt lat="43.58204" lon="3.35445">
        <ele>163.56</ele>
        <time>2016-12-31T10:23:05Z</time>
      </trkpt>
      <trkpt lat="43.5819" lon="3.35404">
        <ele>164.52</ele>
        <time>2016-12-31T10:23:18Z</time>
      </trkpt>
      <trkpt lat="43.5818" lon="3.35368">
        <ele>166.45</ele>
        <time>2016-12-31T10:23:32Z</time>
      </trkpt>
      <trkpt lat="43.58174" lon="3.35313">
        <ele>171.25</ele>
        <time>2016-12-31T10:23:51Z</time>
      </trkpt>
      <trkpt lat="43.5817" lon="3.35274">
        <ele>173.66</ele>
        <time>2016-12-31T10:24:05Z</time>
      </trkpt>
      <trkpt lat="43.58161" lon="3.35227">
        <ele>177.02</ele>
        <time>2016-12-31T10:24:22Z</time>
      </trkpt>
      <trkpt lat="43.58153" lon="3.35181">
        <ele>177.5</ele>
        <time>2016-12-31T10:24:38Z</time>
      </trkpt>
      <trkpt lat="43.58149" lon="3.35135">
        <ele>177.98</ele>
        <time>2016-12-31T10:24:54Z</time>
      </trkpt>
      <trkpt lat="43.58145" lon="3.35096">
        <ele>180.38</ele>
        <time>2016-12-31T10:25:08Z</time>
      </trkpt>
      <trkpt lat="43.58138" lon="3.35054">
        <ele>185.67</ele>
        <time>2016-12-31T10:25:24Z</time>
      </trkpt>
      <trkpt lat="43.58136" lon="3.34999">
        <ele>190</ele>
        <time>2016-12-31T10:25:44Z</time>
      </trkpt>
      <trkpt lat="43.58135" lon="3.34951">
        <ele>193.36</ele>
        <time>2016-12-31T10:26:01Z</time>
      </trkpt>
      <trkpt lat="43.58131" lon="3.34907">
        <ele>198.17</ele>
        <time>2016-12-31T10:26:18Z</time>
      </trkpt>
      <trkpt lat="43.58127" lon="3.34866">
        <ele>201.05</ele>
        <time>2016-12-31T10:26:33Z</time>
      </trkpt>
      <trkpt lat="43.58119" lon="3.34831">
        <ele>202.49</ele>
        <time>2016-12-31T10:26:46Z</time>
      </trkpt>
      <trkpt lat="43.58116" lon="3.34822">
        <ele>202.49</ele>
        <time>2016-12-31T10:26:50Z</time>
      </trkpt>
      <trkpt lat="43.5811" lon="3.34811">
        <ele>203.94</ele>
        <time>2016-12-31T10:26:55Z</time>
      </trkpt>
      <trkpt lat="43.58091" lon="3.34779">
        <ele>208.74</ele>
        <time>2016-12-31T10:27:11Z</time>
      </trkpt>
      <trkpt lat="43.58076" lon="3.34762">
        <ele>211.15</ele>
        <time>2016-12-31T10:27:21Z</time>
      </trkpt>
      <trkpt lat="43.58073" lon="3.34777">
        <ele>212.59</ele>
        <time>2016-12-31T10:27:27Z</time>
      </trkpt>
      <trkpt lat="43.58076" lon="3.34792">
        <ele>213.07</ele>
        <time>2016-12-31T10:27:32Z</time>
      </trkpt>
      <trkpt lat="43.58083" lon="3.34844">
        <ele>210.67</ele>
        <time>2016-12-31T10:27:47Z</time>
      </trkpt>
      <trkpt lat="43.58083" lon="3.34892">
        <ele>213.07</ele>
        <time>2016-12-31T10:28:02Z</time>
      </trkpt>
      <trkpt lat="43.5807" lon="3.34944">
        <ele>218.84</ele>
        <time>2016-12-31T10:28:20Z</time>
      </trkpt>
      <trkpt lat="43.58056" lon="3.34989">
        <ele>223.64</ele>
        <time>2016-12-31T10:28:37Z</time>
      </trkpt>
      <trkpt lat="43.58041" lon="3.35033">
        <ele>227.49</ele>
        <time>2016-12-31T10:28:54Z</time>
      </trkpt>
      <trkpt lat="43.58019" lon="3.35061">
        <ele>229.41</ele>
        <time>2016-12-31T10:29:09Z</time>
      </trkpt>
      <trkpt lat="43.58012" lon="3.35053">
        <ele>229.89</ele>
        <time>2016-12-31T10:29:14Z</time>
      </trkpt>
      <trkpt lat="43.58011" lon="3.3501">
        <ele>231.81</ele>
        <time>2016-12-31T10:29:30Z</time>
      </trkpt>
      <trkpt lat="43.58002" lon="3.3495">
        <ele>233.74</ele>
        <time>2016-12-31T10:29:51Z</time>
      </trkpt>
      <trkpt lat="43.57992" lon="3.34895">
        <ele>235.66</ele>
        <time>2016-12-31T10:30:10Z</time>
      </trkpt>
      <trkpt lat="43.57999" lon="3.3485">
        <ele>236.62</ele>
        <time>2016-12-31T10:30:25Z</time>
      </trkpt>
      <trkpt lat="43.58" lon="3.34788">
        <ele>237.58</ele>
        <time>2016-12-31T10:30:44Z</time>
      </trkpt>
      <trkpt lat="43.58002" lon="3.34737">
        <ele>238.54</ele>
        <time>2016-12-31T10:31:01Z</time>
      </trkpt>
      <trkpt lat="43.58" lon="3.34686">
        <ele>244.31</ele>
        <time>2016-12-31T10:31:19Z</time>
      </trkpt>
      <trkpt lat="43.57993" lon="3.34634">
        <ele>248.64</ele>
        <time>2016-12-31T10:31:38Z</time>
      </trkpt>
      <trkpt lat="43.57987" lon="3.3459">
        <ele>252.96</ele>
        <time>2016-12-31T10:31:54Z</time>
      </trkpt>
      <trkpt lat="43.57982" lon="3.3455">
        <ele>256.33</ele>
        <time>2016-12-31T10:32:10Z</time>
      </trkpt>
      <trkpt lat="43.57971" lon="3.34507">
        <ele>258.73</ele>
        <time>2016-12-31T10:32:27Z</time>
      </trkpt>
      <trkpt lat="43.57966" lon="3.34461">
        <ele>262.1</ele>
        <time>2016-12-31T10:32:44Z</time>
      </trkpt>
      <trkpt lat="43.57965" lon="3.3441">
        <ele>267.38</ele>
        <time>2016-12-31T10:33:01Z</time>
      </trkpt>
      <trkpt lat="43.57971" lon="3.34359">
        <ele>271.23</ele>
        <time>2016-12-31T10:33:19Z</time>
      </trkpt>
      <trkpt lat="43.57982" lon="3.34316">
        <ele>274.59</ele>
        <time>2016-12-31T10:33:35Z</time>
      </trkpt>
      <trkpt lat="43.58003" lon="3.34276">
        <ele>279.88</ele>
        <time>2016-12-31T10:33:53Z</time>
      </trkpt>
      <trkpt lat="43.58028" lon="3.34251">
        <ele>286.13</ele>
        <time>2016-12-31T10:34:10Z</time>
      </trkpt>
      <trkpt lat="43.58056" lon="3.34239">
        <ele>290.94</ele>
        <time>2016-12-31T10:34:25Z</time>
      </trkpt>
      <trkpt lat="43.58089" lon="3.34232">
        <ele>295.26</ele>
        <time>2016-12-31T10:34:41Z</time>
      </trkpt>
      <trkpt lat="43.58112" lon="3.34251">
        <ele>297.18</ele>
        <time>2016-12-31T10:34:55Z</time>
      </trkpt>
      <trkpt lat="43.5812" lon="3.34293">
        <ele>297.67</ele>
        <time>2016-12-31T10:35:10Z</time>
      </trkpt>
      <trkpt lat="43.58132" lon="3.34339">
        <ele>298.15</ele>
        <time>2016-12-31T10:35:26Z</time>
      </trkpt>
      <trkpt lat="43.5815" lon="3.34381">
        <ele>301.03</ele>
        <time>2016-12-31T10:35:42Z</time>
      </trkpt>
      <trkpt lat="43.58174" lon="3.34415">
        <ele>303.91</ele>
        <time>2016-12-31T10:35:59Z</time>
      </trkpt>
      <trkpt lat="43.58204" lon="3.3445">
        <ele>305.84</ele>
        <time>2016-12-31T10:36:18Z</time>
      </trkpt>
      <trkpt lat="43.58238" lon="3.34465">
        <ele>311.12</ele>
        <time>2016-12-31T10:36:36Z</time>
      </trkpt>
      <trkpt lat="43.58272" lon="3.34458">
        <ele>314.01</ele>
        <time>2016-12-31T10:36:53Z</time>
      </trkpt>
      <trkpt lat="43.58283" lon="3.34452">
        <ele>315.45</ele>
        <time>2016-12-31T10:36:59Z</time>
      </trkpt>
      <trkpt lat="43.58286" lon="3.34444">
        <ele>316.41</ele>
        <time>2016-12-31T10:37:02Z</time>
      </trkpt>
      <trkpt lat="43.58283" lon="3.34435">
        <ele>316.89</ele>
        <time>2016-12-31T10:37:06Z</time>
      </trkpt>
      <trkpt lat="43.58255" lon="3.34416">
        <ele>320.26</ele>
        <time>2016-12-31T10:37:21Z</time>
      </trkpt>
      <trkpt lat="43.58238" lon="3.34371">
        <ele>322.66</ele>
        <time>2016-12-31T10:37:37Z</time>
      </trkpt>
      <trkpt lat="43.58224" lon="3.34323">
        <ele>326.99</ele>
        <time>2016-12-31T10:37:53Z</time>
      </trkpt>
      <trkpt lat="43.58224" lon="3.34257">
        <ele>329.39</ele>
        <time>2016-12-31T10:38:12Z</time>
      </trkpt>
      <trkpt lat="43.58229" lon="3.34211">
        <ele>332.27</ele>
        <time>2016-12-31T10:38:26Z</time>
      </trkpt>
      <trkpt lat="43.58247" lon="3.34164">
        <ele>336.6</ele>
        <time>2016-12-31T10:38:43Z</time>
      </trkpt>
      <trkpt lat="43.58269" lon="3.34119">
        <ele>341.41</ele>
        <time>2016-12-31T10:38:59Z</time>
      </trkpt>
      <trkpt lat="43.58288" lon="3.3407">
        <ele>344.77</ele>
        <time>2016-12-31T10:39:17Z</time>
      </trkpt>
      <trkpt lat="43.58271" lon="3.34043">
        <ele>346.69</ele>
        <time>2016-12-31T10:39:29Z</time>
      </trkpt>
      <trkpt lat="43.58235" lon="3.34005">
        <ele>349.1</ele>
        <time>2016-12-31T10:39:48Z</time>
      </trkpt>
      <trkpt lat="43.58208" lon="3.33951">
        <ele>350.54</ele>
        <time>2016-12-31T10:40:05Z</time>
      </trkpt>
      <trkpt lat="43.58214" lon="3.33887">
        <ele>352.94</ele>
        <time>2016-12-31T10:40:20Z</time>
      </trkpt>
      <trkpt lat="43.58235" lon="3.33828">
        <ele>356.31</ele>
        <time>2016-12-31T10:40:35Z</time>
      </trkpt>
      <trkpt lat="43.58245" lon="3.33758">
        <ele>359.19</ele>
        <time>2016-12-31T10:40:51Z</time>
      </trkpt>
      <trkpt lat="43.58241" lon="3.33685">
        <ele>361.11</ele>
        <time>2016-12-31T10:41:07Z</time>
      </trkpt>
      <trkpt lat="43.58253" lon="3.33623">
        <ele>364.48</ele>
        <time>2016-12-31T10:41:21Z</time>
      </trkpt>
      <trkpt lat="43.58276" lon="3.33572">
        <ele>364.48</ele>
        <time>2016-12-31T10:41:33Z</time>
      </trkpt>
      <trkpt lat="43.58282" lon="3.33555">
        <ele>364.48</ele>
        <time>2016-12-31T10:41:36Z</time>
      </trkpt>
      <trkpt lat="43.58292" lon="3.33498">
        <ele>364</ele>
        <time>2016-12-31T10:41:45Z</time>
      </trkpt>
      <trkpt lat="43.58305" lon="3.33393">
        <ele>362.55</ele>
        <time>2016-12-31T10:42:03Z</time>
      </trkpt>
      <trkpt lat="43.5831" lon="3.33351">
        <ele>361.59</ele>
        <time>2016-12-31T10:42:09Z</time>
      </trkpt>
      <trkpt lat="43.5831" lon="3.33338">
        <ele>360.63</ele>
        <time>2016-12-31T10:42:11Z</time>
      </trkpt>
      <trkpt lat="43.58307" lon="3.33247">
        <ele>357.27</ele>
        <time>2016-12-31T10:42:21Z</time>
      </trkpt>
      <trkpt lat="43.58324" lon="3.3317">
        <ele>355.83</ele>
        <time>2016-12-31T10:42:30Z</time>
      </trkpt>
      <trkpt lat="43.58327" lon="3.3313">
        <ele>355.34</ele>
        <time>2016-12-31T10:42:35Z</time>
      </trkpt>
      <trkpt lat="43.58322" lon="3.33095">
        <ele>354.86</ele>
        <time>2016-12-31T10:42:39Z</time>
      </trkpt>
      <trkpt lat="43.58323" lon="3.33069">
        <ele>353.9</ele>
        <time>2016-12-31T10:42:42Z</time>
      </trkpt>
      <trkpt lat="43.58325" lon="3.33051">
        <ele>352.94</ele>
        <time>2016-12-31T10:42:44Z</time>
      </trkpt>
      <trkpt lat="43.58351" lon="3.32939">
        <ele>349.58</ele>
        <time>2016-12-31T10:42:56Z</time>
      </trkpt>
      <trkpt lat="43.58344" lon="3.32852">
        <ele>350.06</ele>
        <time>2016-12-31T10:43:09Z</time>
      </trkpt>
      <trkpt lat="43.58313" lon="3.32821">
        <ele>352.46</ele>
        <time>2016-12-31T10:43:23Z</time>
      </trkpt>
      <trkpt lat="43.58259" lon="3.32784">
        <ele>352.46</ele>
        <time>2016-12-31T10:43:40Z</time>
      </trkpt>
      <trkpt lat="43.58231" lon="3.32737">
        <ele>353.42</ele>
        <time>2016-12-31T10:43:53Z</time>
      </trkpt>
      <trkpt lat="43.58228" lon="3.32683">
        <ele>354.86</ele>
        <time>2016-12-31T10:44:06Z</time>
      </trkpt>
      <trkpt lat="43.58233" lon="3.32627">
        <ele>356.79</ele>
        <time>2016-12-31T10:44:21Z</time>
      </trkpt>
      <trkpt lat="43.58243" lon="3.32566">
        <ele>360.15</ele>
        <time>2016-12-31T10:44:40Z</time>
      </trkpt>
      <trkpt lat="43.58241" lon="3.32517">
        <ele>362.07</ele>
        <time>2016-12-31T10:44:56Z</time>
      </trkpt>
      <trkpt lat="43.58239" lon="3.32472">
        <ele>364</ele>
        <time>2016-12-31T10:45:10Z</time>
      </trkpt>
      <trkpt lat="43.58263" lon="3.32433">
        <ele>365.92</ele>
        <time>2016-12-31T10:45:26Z</time>
      </trkpt>
      <trkpt lat="43.583" lon="3.32398">
        <ele>369.28</ele>
        <time>2016-12-31T10:45:43Z</time>
      </trkpt>
      <trkpt lat="43.58341" lon="3.32393">
        <ele>372.17</ele>
        <time>2016-12-31T10:46:00Z</time>
      </trkpt>
      <trkpt lat="43.58378" lon="3.32395">
        <ele>375.05</ele>
        <time>2016-12-31T10:46:18Z</time>
      </trkpt>
      <trkpt lat="43.58406" lon="3.32379">
        <ele>377.94</ele>
        <time>2016-12-31T10:46:33Z</time>
      </trkpt>
      <trkpt lat="43.58436" lon="3.32351">
        <ele>379.86</ele>
        <time>2016-12-31T10:46:50Z</time>
      </trkpt>
      <trkpt lat="43.5846" lon="3.32332">
        <ele>381.78</ele>
        <time>2016-12-31T10:47:04Z</time>
      </trkpt>
      <trkpt lat="43.58473" lon="3.32319">
        <ele>382.26</ele>
        <time>2016-12-31T10:47:11Z</time>
      </trkpt>
      <trkpt lat="43.58495" lon="3.32283">
        <ele>383.7</ele>
        <time>2016-12-31T10:47:27Z</time>
      </trkpt>
      <trkpt lat="43.58516" lon="3.32242">
        <ele>385.63</ele>
        <time>2016-12-31T10:47:43Z</time>
      </trkpt>
      <trkpt lat="43.58521" lon="3.32202">
        <ele>386.59</ele>
        <time>2016-12-31T10:47:56Z</time>
      </trkpt>
      <trkpt lat="43.58498" lon="3.3216">
        <ele>386.11</ele>
        <time>2016-12-31T10:48:09Z</time>
      </trkpt>
      <trkpt lat="43.58487" lon="3.32105">
        <ele>385.15</ele>
        <time>2016-12-31T10:48:22Z</time>
      </trkpt>
      <trkpt lat="43.58456" lon="3.32083">
        <ele>387.07</ele>
        <time>2016-12-31T10:48:34Z</time>
      </trkpt>
      <trkpt lat="43.58425" lon="3.32084">
        <ele>391.87</ele>
        <time>2016-12-31T10:48:47Z</time>
      </trkpt>
      <trkpt lat="43.58413" lon="3.32088">
        <ele>391.87</ele>
        <time>2016-12-31T10:48:59Z</time>
      </trkpt>
      <trkpt lat="43.58413" lon="3.32088">
        <ele>390.91</ele>
        <time>2016-12-31T10:49:45Z</time>
      </trkpt>
      <trkpt lat="43.58412" lon="3.32088">
        <ele>390.91</ele>
        <time>2016-12-31T10:50:06Z</time>
      </trkpt>
      <trkpt lat="43.58378" lon="3.321">
        <ele>388.03</ele>
        <time>2016-12-31T10:50:15Z</time>
      </trkpt>
      <trkpt lat="43.58276" lon="3.32121">
        <ele>381.78</ele>
        <time>2016-12-31T10:50:30Z</time>
      </trkpt>
      <trkpt lat="43.58226" lon="3.32148">
        <ele>378.9</ele>
        <time>2016-12-31T10:50:37Z</time>
      </trkpt>
      <trkpt lat="43.58113" lon="3.32227">
        <ele>368.8</ele>
        <time>2016-12-31T10:50:48Z</time>
      </trkpt>
      <trkpt lat="43.58083" lon="3.32262">
        <ele>365.92</ele>
        <time>2016-12-31T10:50:51Z</time>
      </trkpt>
      <trkpt lat="43.58029" lon="3.32342">
        <ele>361.11</ele>
        <time>2016-12-31T10:50:57Z</time>
      </trkpt>
      <trkpt lat="43.57999" lon="3.32398">
        <ele>358.23</ele>
        <time>2016-12-31T10:51:02Z</time>
      </trkpt>
      <trkpt lat="43.57964" lon="3.32436">
        <ele>354.86</ele>
        <time>2016-12-31T10:51:10Z</time>
      </trkpt>
      <trkpt lat="43.57967" lon="3.32425">
        <ele>354.38</ele>
        <time>2016-12-31T10:51:12Z</time>
      </trkpt>
      <trkpt lat="43.57979" lon="3.32371">
        <ele>351.5</ele>
        <time>2016-12-31T10:51:18Z</time>
      </trkpt>
      <trkpt lat="43.57995" lon="3.32265">
        <ele>345.73</ele>
        <time>2016-12-31T10:51:26Z</time>
      </trkpt>
      <trkpt lat="43.58019" lon="3.3214">
        <ele>338.52</ele>
        <time>2016-12-31T10:51:35Z</time>
      </trkpt>
      <trkpt lat="43.58044" lon="3.32082">
        <ele>334.68</ele>
        <time>2016-12-31T10:51:40Z</time>
      </trkpt>
      <trkpt lat="43.58082" lon="3.32049">
        <ele>333.71</ele>
        <time>2016-12-31T10:51:45Z</time>
      </trkpt>
      <trkpt lat="43.58097" lon="3.32042">
        <ele>333.71</ele>
        <time>2016-12-31T10:51:47Z</time>
      </trkpt>
      <trkpt lat="43.58121" lon="3.32027">
        <ele>333.23</ele>
        <time>2016-12-31T10:51:50Z</time>
      </trkpt>
      <trkpt lat="43.58137" lon="3.3202">
        <ele>332.27</ele>
        <time>2016-12-31T10:51:52Z</time>
      </trkpt>
      <trkpt lat="43.58136" lon="3.32005">
        <ele>330.35</ele>
        <time>2016-12-31T10:51:57Z</time>
      </trkpt>
      <trkpt lat="43.58125" lon="3.32011">
        <ele>329.39</ele>
        <time>2016-12-31T10:51:59Z</time>
      </trkpt>
      <trkpt lat="43.58109" lon="3.32015">
        <ele>327.95</ele>
        <time>2016-12-31T10:52:01Z</time>
      </trkpt>
      <trkpt lat="43.58055" lon="3.32">
        <ele>323.62</ele>
        <time>2016-12-31T10:52:07Z</time>
      </trkpt>
      <trkpt lat="43.58007" lon="3.32025">
        <ele>316.41</ele>
        <time>2016-12-31T10:52:13Z</time>
      </trkpt>
      <trkpt lat="43.57966" lon="3.32068">
        <ele>311.6</ele>
        <time>2016-12-31T10:52:18Z</time>
      </trkpt>
      <trkpt lat="43.57936" lon="3.32106">
        <ele>309.2</ele>
        <time>2016-12-31T10:52:22Z</time>
      </trkpt>
      <trkpt lat="43.57911" lon="3.32142">
        <ele>306.8</ele>
        <time>2016-12-31T10:52:29Z</time>
      </trkpt>
      <trkpt lat="43.57911" lon="3.32167">
        <ele>305.84</ele>
        <time>2016-12-31T10:52:34Z</time>
      </trkpt>
      <trkpt lat="43.57922" lon="3.3219">
        <ele>303.43</ele>
        <time>2016-12-31T10:52:39Z</time>
      </trkpt>
      <trkpt lat="43.57925" lon="3.32198">
        <ele>302.47</ele>
        <time>2016-12-31T10:52:49Z</time>
      </trkpt>
      <trkpt lat="43.57926" lon="3.32205">
        <ele>301.99</ele>
        <time>2016-12-31T10:52:51Z</time>
      </trkpt>
      <trkpt lat="43.57903" lon="3.3224">
        <ele>301.03</ele>
        <time>2016-12-31T10:53:01Z</time>
      </trkpt>
      <trkpt lat="43.57889" lon="3.32291">
        <ele>303.91</ele>
        <time>2016-12-31T10:53:14Z</time>
      </trkpt>
      <trkpt lat="43.57897" lon="3.32323">
        <ele>303.91</ele>
        <time>2016-12-31T10:53:22Z</time>
      </trkpt>
      <trkpt lat="43.5789" lon="3.32338">
        <ele>305.36</ele>
        <time>2016-12-31T10:53:27Z</time>
      </trkpt>
      <trkpt lat="43.57871" lon="3.32333">
        <ele>307.28</ele>
        <time>2016-12-31T10:53:32Z</time>
      </trkpt>
      <trkpt lat="43.57841" lon="3.32309">
        <ele>307.28</ele>
        <time>2016-12-31T10:53:38Z</time>
      </trkpt>
      <trkpt lat="43.57799" lon="3.32297">
        <ele>304.88</ele>
        <time>2016-12-31T10:53:44Z</time>
      </trkpt>
      <trkpt lat="43.57783" lon="3.323">
        <ele>302.95</ele>
        <time>2016-12-31T10:53:46Z</time>
      </trkpt>
      <trkpt lat="43.5776" lon="3.32311">
        <ele>300.07</ele>
        <time>2016-12-31T10:53:49Z</time>
      </trkpt>
      <trkpt lat="43.57743" lon="3.32323">
        <ele>298.15</ele>
        <time>2016-12-31T10:53:51Z</time>
      </trkpt>
      <trkpt lat="43.57702" lon="3.32354">
        <ele>293.82</ele>
        <time>2016-12-31T10:53:56Z</time>
      </trkpt>
      <trkpt lat="43.57652" lon="3.32431">
        <ele>288.53</ele>
        <time>2016-12-31T10:54:04Z</time>
      </trkpt>
      <trkpt lat="43.57615" lon="3.32435">
        <ele>287.09</ele>
        <time>2016-12-31T10:54:10Z</time>
      </trkpt>
      <trkpt lat="43.57592" lon="3.32438">
        <ele>286.13</ele>
        <time>2016-12-31T10:54:13Z</time>
      </trkpt>
      <trkpt lat="43.57551" lon="3.32457">
        <ele>283.25</ele>
        <time>2016-12-31T10:54:18Z</time>
      </trkpt>
      <trkpt lat="43.57534" lon="3.32461">
        <ele>281.8</ele>
        <time>2016-12-31T10:54:20Z</time>
      </trkpt>
      <trkpt lat="43.57487" lon="3.32484">
        <ele>277.48</ele>
        <time>2016-12-31T10:54:26Z</time>
      </trkpt>
      <trkpt lat="43.57468" lon="3.32492">
        <ele>274.11</ele>
        <time>2016-12-31T10:54:32Z</time>
      </trkpt>
      <trkpt lat="43.57475" lon="3.32484">
        <ele>273.15</ele>
        <time>2016-12-31T10:54:35Z</time>
      </trkpt>
      <trkpt lat="43.57549" lon="3.32415">
        <ele>263.06</ele>
        <time>2016-12-31T10:54:49Z</time>
      </trkpt>
      <trkpt lat="43.57591" lon="3.32365">
        <ele>258.73</ele>
        <time>2016-12-31T10:54:56Z</time>
      </trkpt>
      <trkpt lat="43.57603" lon="3.32356">
        <ele>257.77</ele>
        <time>2016-12-31T10:54:58Z</time>
      </trkpt>
      <trkpt lat="43.57625" lon="3.32321">
        <ele>255.85</ele>
        <time>2016-12-31T10:55:05Z</time>
      </trkpt>
      <trkpt lat="43.57662" lon="3.32274">
        <ele>257.29</ele>
        <time>2016-12-31T10:55:20Z</time>
      </trkpt>
      <trkpt lat="43.57686" lon="3.32234">
        <ele>258.73</ele>
        <time>2016-12-31T10:55:33Z</time>
      </trkpt>
      <trkpt lat="43.57691" lon="3.32225">
        <ele>257.77</ele>
        <time>2016-12-31T10:55:36Z</time>
      </trkpt>
      <trkpt lat="43.57684" lon="3.32199">
        <ele>256.81</ele>
        <time>2016-12-31T10:55:42Z</time>
      </trkpt>
      <trkpt lat="43.57694" lon="3.32174">
        <ele>258.73</ele>
        <time>2016-12-31T10:55:51Z</time>
      </trkpt>
      <trkpt lat="43.57712" lon="3.32152">
        <ele>263.06</ele>
        <time>2016-12-31T10:56:05Z</time>
      </trkpt>
      <trkpt lat="43.57733" lon="3.32124">
        <ele>263.54</ele>
        <time>2016-12-31T10:56:21Z</time>
      </trkpt>
      <trkpt lat="43.57749" lon="3.32104">
        <ele>266.9</ele>
        <time>2016-12-31T10:56:33Z</time>
      </trkpt>
      <trkpt lat="43.5775" lon="3.321">
        <ele>267.86</ele>
        <time>2016-12-31T10:56:35Z</time>
      </trkpt>
      <trkpt lat="43.57747" lon="3.32095">
        <ele>268.83</ele>
        <time>2016-12-31T10:56:39Z</time>
      </trkpt>
      <trkpt lat="43.57731" lon="3.32113">
        <ele>267.86</ele>
        <time>2016-12-31T10:56:53Z</time>
      </trkpt>
      <trkpt lat="43.5771" lon="3.32132">
        <ele>265.46</ele>
        <time>2016-12-31T10:57:07Z</time>
      </trkpt>
      <trkpt lat="43.57683" lon="3.32144">
        <ele>268.83</ele>
        <time>2016-12-31T10:57:22Z</time>
      </trkpt>
      <trkpt lat="43.57655" lon="3.32156">
        <ele>269.31</ele>
        <time>2016-12-31T10:57:38Z</time>
      </trkpt>
      <trkpt lat="43.57635" lon="3.32172">
        <ele>272.67</ele>
        <time>2016-12-31T10:57:51Z</time>
      </trkpt>
      <trkpt lat="43.57607" lon="3.32187">
        <ele>274.11</ele>
        <time>2016-12-31T10:58:07Z</time>
      </trkpt>
      <trkpt lat="43.5758" lon="3.32181">
        <ele>279.4</ele>
        <time>2016-12-31T10:58:22Z</time>
      </trkpt>
      <trkpt lat="43.5757" lon="3.3216">
        <ele>280.36</ele>
        <time>2016-12-31T10:58:31Z</time>
      </trkpt>
      <trkpt lat="43.57554" lon="3.32172">
        <ele>285.17</ele>
        <time>2016-12-31T10:58:42Z</time>
      </trkpt>
      <trkpt lat="43.57553" lon="3.32174">
        <ele>286.13</ele>
        <time>2016-12-31T10:58:43Z</time>
      </trkpt>
      <trkpt lat="43.5755" lon="3.3218">
        <ele>288.53</ele>
        <time>2016-12-31T10:58:46Z</time>
      </trkpt>
      <trkpt lat="43.57534" lon="3.32197">
        <ele>294.3</ele>
        <time>2016-12-31T10:58:59Z</time>
      </trkpt>
      <trkpt lat="43.57531" lon="3.322">
        <ele>294.78</ele>
        <time>2016-12-31T10:59:01Z</time>
      </trkpt>
      <trkpt lat="43.57525" lon="3.32206">
        <ele>295.74</ele>
        <time>2016-12-31T10:59:05Z</time>
      </trkpt>
      <trkpt lat="43.57502" lon="3.32226">
        <ele>300.07</ele>
        <time>2016-12-31T10:59:19Z</time>
      </trkpt>
      <trkpt lat="43.57475" lon="3.32238">
        <ele>298.15</ele>
        <time>2016-12-31T10:59:32Z</time>
      </trkpt>
      <trkpt lat="43.57466" lon="3.32239">
        <ele>296.7</ele>
        <time>2016-12-31T10:59:36Z</time>
      </trkpt>
      <trkpt lat="43.57475" lon="3.32227">
        <ele>295.26</ele>
        <time>2016-12-31T10:59:47Z</time>
      </trkpt>
      <trkpt lat="43.57491" lon="3.32208">
        <ele>293.82</ele>
        <time>2016-12-31T11:00:00Z</time>
      </trkpt>
      <trkpt lat="43.57497" lon="3.32199">
        <ele>293.82</ele>
        <time>2016-12-31T11:00:06Z</time>
      </trkpt>
      <trkpt lat="43.5751" lon="3.32167">
        <ele>295.74</ele>
        <time>2016-12-31T11:00:21Z</time>
      </trkpt>
      <trkpt lat="43.57518" lon="3.32134">
        <ele>298.63</ele>
        <time>2016-12-31T11:00:36Z</time>
      </trkpt>
      <trkpt lat="43.57519" lon="3.32129">
        <ele>298.63</ele>
        <time>2016-12-31T11:00:38Z</time>
      </trkpt>
      <trkpt lat="43.57515" lon="3.32096">
        <ele>301.03</ele>
        <time>2016-12-31T11:00:53Z</time>
      </trkpt>
      <trkpt lat="43.57511" lon="3.32062">
        <ele>303.43</ele>
        <time>2016-12-31T11:01:06Z</time>
      </trkpt>
      <trkpt lat="43.57505" lon="3.32028">
        <ele>304.39</ele>
        <time>2016-12-31T11:01:20Z</time>
      </trkpt>
      <trkpt lat="43.575" lon="3.31992">
        <ele>307.28</ele>
        <time>2016-12-31T11:01:34Z</time>
      </trkpt>
      <trkpt lat="43.57502" lon="3.31948">
        <ele>310.16</ele>
        <time>2016-12-31T11:01:50Z</time>
      </trkpt>
      <trkpt lat="43.57505" lon="3.31931">
        <ele>314.49</ele>
        <time>2016-12-31T11:01:57Z</time>
      </trkpt>
      <trkpt lat="43.57515" lon="3.31885">
        <ele>316.89</ele>
        <time>2016-12-31T11:02:13Z</time>
      </trkpt>
      <trkpt lat="43.57517" lon="3.3187">
        <ele>317.37</ele>
        <time>2016-12-31T11:02:19Z</time>
      </trkpt>
      <trkpt lat="43.57519" lon="3.31855">
        <ele>317.37</ele>
        <time>2016-12-31T11:02:25Z</time>
      </trkpt>
      <trkpt lat="43.57527" lon="3.31824">
        <ele>318.81</ele>
        <time>2016-12-31T11:02:37Z</time>
      </trkpt>
      <trkpt lat="43.57536" lon="3.31784">
        <ele>319.3</ele>
        <time>2016-12-31T11:02:52Z</time>
      </trkpt>
      <trkpt lat="43.57545" lon="3.3175">
        <ele>322.66</ele>
        <time>2016-12-31T11:03:05Z</time>
      </trkpt>
      <trkpt lat="43.57559" lon="3.31709">
        <ele>324.1</ele>
        <time>2016-12-31T11:03:21Z</time>
      </trkpt>
      <trkpt lat="43.57578" lon="3.31672">
        <ele>326.02</ele>
        <time>2016-12-31T11:03:38Z</time>
      </trkpt>
      <trkpt lat="43.5758" lon="3.3166">
        <ele>326.5</ele>
        <time>2016-12-31T11:03:43Z</time>
      </trkpt>
      <trkpt lat="43.57573" lon="3.31666">
        <ele>326.99</ele>
        <time>2016-12-31T11:03:50Z</time>
      </trkpt>
      <trkpt lat="43.57553" lon="3.31698">
        <ele>329.87</ele>
        <time>2016-12-31T11:04:06Z</time>
      </trkpt>
      <trkpt lat="43.57534" lon="3.31727">
        <ele>330.35</ele>
        <time>2016-12-31T11:04:20Z</time>
      </trkpt>
      <trkpt lat="43.57513" lon="3.31758">
        <ele>335.64</ele>
        <time>2016-12-31T11:04:34Z</time>
      </trkpt>
      <trkpt lat="43.5749" lon="3.31793">
        <ele>337.08</ele>
        <time>2016-12-31T11:04:51Z</time>
      </trkpt>
      <trkpt lat="43.57471" lon="3.31819">
        <ele>341.89</ele>
        <time>2016-12-31T11:05:06Z</time>
      </trkpt>
      <trkpt lat="43.57456" lon="3.31838">
        <ele>342.37</ele>
        <time>2016-12-31T11:05:15Z</time>
      </trkpt>
      <trkpt lat="43.57448" lon="3.31833">
        <ele>341.41</ele>
        <time>2016-12-31T11:05:21Z</time>
      </trkpt>
      <trkpt lat="43.57456" lon="3.31808">
        <ele>343.33</ele>
        <time>2016-12-31T11:05:35Z</time>
      </trkpt>
      <trkpt lat="43.57466" lon="3.31779">
        <ele>345.25</ele>
        <time>2016-12-31T11:05:49Z</time>
      </trkpt>
      <trkpt lat="43.57474" lon="3.31745">
        <ele>345.25</ele>
        <time>2016-12-31T11:06:04Z</time>
      </trkpt>
      <trkpt lat="43.57486" lon="3.31708">
        <ele>348.62</ele>
        <time>2016-12-31T11:06:21Z</time>
      </trkpt>
      <trkpt lat="43.57493" lon="3.31678">
        <ele>353.42</ele>
        <time>2016-12-31T11:06:36Z</time>
      </trkpt>
      <trkpt lat="43.57502" lon="3.31649">
        <ele>357.27</ele>
        <time>2016-12-31T11:06:50Z</time>
      </trkpt>
      <trkpt lat="43.57509" lon="3.31628">
        <ele>359.19</ele>
        <time>2016-12-31T11:07:00Z</time>
      </trkpt>
      <trkpt lat="43.57522" lon="3.31596">
        <ele>361.11</ele>
        <time>2016-12-31T11:07:11Z</time>
      </trkpt>
      <trkpt lat="43.57549" lon="3.31557">
        <ele>360.15</ele>
        <time>2016-12-31T11:07:24Z</time>
      </trkpt>
      <trkpt lat="43.57578" lon="3.31525">
        <ele>361.11</ele>
        <time>2016-12-31T11:07:36Z</time>
      </trkpt>
      <trkpt lat="43.57621" lon="3.31509">
        <ele>364.96</ele>
        <time>2016-12-31T11:07:49Z</time>
      </trkpt>
      <trkpt lat="43.57651" lon="3.31513">
        <ele>367.36</ele>
        <time>2016-12-31T11:07:58Z</time>
      </trkpt>
      <trkpt lat="43.57661" lon="3.31509">
        <ele>366.88</ele>
        <time>2016-12-31T11:08:01Z</time>
      </trkpt>
      <trkpt lat="43.57669" lon="3.31503">
        <ele>365.44</ele>
        <time>2016-12-31T11:08:03Z</time>
      </trkpt>
      <trkpt lat="43.57689" lon="3.31471">
        <ele>360.63</ele>
        <time>2016-12-31T11:08:09Z</time>
      </trkpt>
      <trkpt lat="43.57719" lon="3.3144">
        <ele>357.27</ele>
        <time>2016-12-31T11:08:16Z</time>
      </trkpt>
      <trkpt lat="43.57753" lon="3.31396">
        <ele>353.9</ele>
        <time>2016-12-31T11:08:27Z</time>
      </trkpt>
      <trkpt lat="43.57751" lon="3.31381">
        <ele>354.86</ele>
        <time>2016-12-31T11:08:35Z</time>
      </trkpt>
      <trkpt lat="43.57744" lon="3.31375">
        <ele>354.38</ele>
        <time>2016-12-31T11:08:39Z</time>
      </trkpt>
      <trkpt lat="43.577" lon="3.3135">
        <ele>351.5</ele>
        <time>2016-12-31T11:08:48Z</time>
      </trkpt>
      <trkpt lat="43.57676" lon="3.31346">
        <ele>349.58</ele>
        <time>2016-12-31T11:08:52Z</time>
      </trkpt>
      <trkpt lat="43.57659" lon="3.31346">
        <ele>347.65</ele>
        <time>2016-12-31T11:08:55Z</time>
      </trkpt>
      <trkpt lat="43.57648" lon="3.31347">
        <ele>346.69</ele>
        <time>2016-12-31T11:08:57Z</time>
      </trkpt>
      <trkpt lat="43.57638" lon="3.31346">
        <ele>346.21</ele>
        <time>2016-12-31T11:08:59Z</time>
      </trkpt>
      <trkpt lat="43.5761" lon="3.31347">
        <ele>344.29</ele>
        <time>2016-12-31T11:09:04Z</time>
      </trkpt>
      <trkpt lat="43.57576" lon="3.31358">
        <ele>344.29</ele>
        <time>2016-12-31T11:09:11Z</time>
      </trkpt>
      <trkpt lat="43.57534" lon="3.31354">
        <ele>344.77</ele>
        <time>2016-12-31T11:09:18Z</time>
      </trkpt>
      <trkpt lat="43.57503" lon="3.31366">
        <ele>346.21</ele>
        <time>2016-12-31T11:09:24Z</time>
      </trkpt>
      <trkpt lat="43.57477" lon="3.31376">
        <ele>346.69</ele>
        <time>2016-12-31T11:09:29Z</time>
      </trkpt>
      <trkpt lat="43.57454" lon="3.31404">
        <ele>345.25</ele>
        <time>2016-12-31T11:09:36Z</time>
      </trkpt>
      <trkpt lat="43.57419" lon="3.31437">
        <ele>343.81</ele>
        <time>2016-12-31T11:09:45Z</time>
      </trkpt>
      <trkpt lat="43.57408" lon="3.31451">
        <ele>342.85</ele>
        <time>2016-12-31T11:09:48Z</time>
      </trkpt>
      <trkpt lat="43.5739" lon="3.31456">
        <ele>339.48</ele>
        <time>2016-12-31T11:09:55Z</time>
      </trkpt>
      <trkpt lat="43.57385" lon="3.31442">
        <ele>338.04</ele>
        <time>2016-12-31T11:09:57Z</time>
      </trkpt>
      <trkpt lat="43.57371" lon="3.31408">
        <ele>335.16</ele>
        <time>2016-12-31T11:10:01Z</time>
      </trkpt>
      <trkpt lat="43.57327" lon="3.31393">
        <ele>330.35</ele>
        <time>2016-12-31T11:10:08Z</time>
      </trkpt>
      <trkpt lat="43.5728" lon="3.31397">
        <ele>326.99</ele>
        <time>2016-12-31T11:10:14Z</time>
      </trkpt>
      <trkpt lat="43.57221" lon="3.31398">
        <ele>325.06</ele>
        <time>2016-12-31T11:10:22Z</time>
      </trkpt>
      <trkpt lat="43.57166" lon="3.31384">
        <ele>323.62</ele>
        <time>2016-12-31T11:10:30Z</time>
      </trkpt>
      <trkpt lat="43.57147" lon="3.31372">
        <ele>322.66</ele>
        <time>2016-12-31T11:10:33Z</time>
      </trkpt>
      <trkpt lat="43.57125" lon="3.31355">
        <ele>320.26</ele>
        <time>2016-12-31T11:10:37Z</time>
      </trkpt>
      <trkpt lat="43.57098" lon="3.31327">
        <ele>315.45</ele>
        <time>2016-12-31T11:10:42Z</time>
      </trkpt>
      <trkpt lat="43.57089" lon="3.31313">
        <ele>313.05</ele>
        <time>2016-12-31T11:10:44Z</time>
      </trkpt>
      <trkpt lat="43.57078" lon="3.3129">
        <ele>309.2</ele>
        <time>2016-12-31T11:10:47Z</time>
      </trkpt>
      <trkpt lat="43.57063" lon="3.31286">
        <ele>304.39</ele>
        <time>2016-12-31T11:10:51Z</time>
      </trkpt>
      <trkpt lat="43.57045" lon="3.31295">
        <ele>301.51</ele>
        <time>2016-12-31T11:10:55Z</time>
      </trkpt>
      <trkpt lat="43.57027" lon="3.31295">
        <ele>300.55</ele>
        <time>2016-12-31T11:10:58Z</time>
      </trkpt>
      <trkpt lat="43.57006" lon="3.31298">
        <ele>298.15</ele>
        <time>2016-12-31T11:11:03Z</time>
      </trkpt>
      <trkpt lat="43.56997" lon="3.31302">
        <ele>297.67</ele>
        <time>2016-12-31T11:11:05Z</time>
      </trkpt>
      <trkpt lat="43.56972" lon="3.31325">
        <ele>297.18</ele>
        <time>2016-12-31T11:11:10Z</time>
      </trkpt>
      <trkpt lat="43.56941" lon="3.31352">
        <ele>297.67</ele>
        <time>2016-12-31T11:11:16Z</time>
      </trkpt>
      <trkpt lat="43.56931" lon="3.31358">
        <ele>297.67</ele>
        <time>2016-12-31T11:11:18Z</time>
      </trkpt>
      <trkpt lat="43.56919" lon="3.31362">
        <ele>297.67</ele>
        <time>2016-12-31T11:11:20Z</time>
      </trkpt>
      <trkpt lat="43.56895" lon="3.3137">
        <ele>298.63</ele>
        <time>2016-12-31T11:11:24Z</time>
      </trkpt>
      <trkpt lat="43.56873" lon="3.31372">
        <ele>300.55</ele>
        <time>2016-12-31T11:11:28Z</time>
      </trkpt>
      <trkpt lat="43.56848" lon="3.31378">
        <ele>302.47</ele>
        <time>2016-12-31T11:11:33Z</time>
      </trkpt>
      <trkpt lat="43.5683" lon="3.31374">
        <ele>303.91</ele>
        <time>2016-12-31T11:11:37Z</time>
      </trkpt>
      <trkpt lat="43.56811" lon="3.31379">
        <ele>304.88</ele>
        <time>2016-12-31T11:11:41Z</time>
      </trkpt>
      <trkpt lat="43.56796" lon="3.31387">
        <ele>304.88</ele>
        <time>2016-12-31T11:11:44Z</time>
      </trkpt>
      <trkpt lat="43.56775" lon="3.314">
        <ele>303.91</ele>
        <time>2016-12-31T11:11:48Z</time>
      </trkpt>
      <trkpt lat="43.56744" lon="3.31401">
        <ele>301.99</ele>
        <time>2016-12-31T11:11:54Z</time>
      </trkpt>
      <trkpt lat="43.56711" lon="3.31398">
        <ele>301.51</ele>
        <time>2016-12-31T11:12:01Z</time>
      </trkpt>
      <trkpt lat="43.56688" lon="3.314">
        <ele>300.55</ele>
        <time>2016-12-31T11:12:05Z</time>
      </trkpt>
      <trkpt lat="43.56674" lon="3.31399">
        <ele>300.07</ele>
        <time>2016-12-31T11:12:07Z</time>
      </trkpt>
      <trkpt lat="43.56654" lon="3.31406">
        <ele>296.7</ele>
        <time>2016-12-31T11:12:10Z</time>
      </trkpt>
      <trkpt lat="43.5664" lon="3.31416">
        <ele>293.34</ele>
        <time>2016-12-31T11:12:13Z</time>
      </trkpt>
      <trkpt lat="43.56633" lon="3.31415">
        <ele>291.42</ele>
        <time>2016-12-31T11:12:15Z</time>
      </trkpt>
      <trkpt lat="43.56626" lon="3.31415">
        <ele>289.97</ele>
        <time>2016-12-31T11:12:17Z</time>
      </trkpt>
      <trkpt lat="43.56618" lon="3.31406">
        <ele>287.09</ele>
        <time>2016-12-31T11:12:21Z</time>
      </trkpt>
      <trkpt lat="43.56581" lon="3.31402">
        <ele>282.28</ele>
        <time>2016-12-31T11:12:31Z</time>
      </trkpt>
      <trkpt lat="43.56545" lon="3.31391">
        <ele>283.73</ele>
        <time>2016-12-31T11:12:41Z</time>
      </trkpt>
      <trkpt lat="43.56523" lon="3.31389">
        <ele>285.65</ele>
        <time>2016-12-31T11:12:46Z</time>
      </trkpt>
      <trkpt lat="43.56497" lon="3.31383">
        <ele>287.57</ele>
        <time>2016-12-31T11:12:51Z</time>
      </trkpt>
      <trkpt lat="43.56476" lon="3.31378">
        <ele>287.57</ele>
        <time>2016-12-31T11:12:55Z</time>
      </trkpt>
      <trkpt lat="43.56457" lon="3.31376">
        <ele>288.05</ele>
        <time>2016-12-31T11:12:59Z</time>
      </trkpt>
      <trkpt lat="43.5644" lon="3.3137">
        <ele>289.01</ele>
        <time>2016-12-31T11:13:03Z</time>
      </trkpt>
      <trkpt lat="43.56395" lon="3.31352">
        <ele>290.46</ele>
        <time>2016-12-31T11:13:14Z</time>
      </trkpt>
      <trkpt lat="43.56387" lon="3.31344">
        <ele>291.42</ele>
        <time>2016-12-31T11:13:17Z</time>
      </trkpt>
      <trkpt lat="43.56377" lon="3.31333">
        <ele>290.94</ele>
        <time>2016-12-31T11:13:23Z</time>
      </trkpt>
      <trkpt lat="43.56365" lon="3.31325">
        <ele>290.94</ele>
        <time>2016-12-31T11:13:33Z</time>
      </trkpt>
      <trkpt lat="43.56364" lon="3.31324">
        <ele>290.94</ele>
        <time>2016-12-31T11:13:34Z</time>
      </trkpt>
      <trkpt lat="43.56355" lon="3.31313">
        <ele>291.42</ele>
        <time>2016-12-31T11:13:41Z</time>
      </trkpt>
      <trkpt lat="43.56351" lon="3.31307">
        <ele>291.42</ele>
        <time>2016-12-31T11:13:44Z</time>
      </trkpt>
      <trkpt lat="43.56333" lon="3.31286">
        <ele>292.86</ele>
        <time>2016-12-31T11:13:57Z</time>
      </trkpt>
      <trkpt lat="43.56329" lon="3.31283">
        <ele>293.34</ele>
        <time>2016-12-31T11:14:00Z</time>
      </trkpt>
      <trkpt lat="43.56316" lon="3.3128">
        <ele>294.3</ele>
        <time>2016-12-31T11:14:08Z</time>
      </trkpt>
      <trkpt lat="43.56302" lon="3.31271">
        <ele>293.34</ele>
        <time>2016-12-31T11:14:12Z</time>
      </trkpt>
      <trkpt lat="43.56295" lon="3.3127">
        <ele>293.34</ele>
        <time>2016-12-31T11:14:14Z</time>
      </trkpt>
      <trkpt lat="43.56265" lon="3.31239">
        <ele>290.46</ele>
        <time>2016-12-31T11:14:22Z</time>
      </trkpt>
      <trkpt lat="43.56247" lon="3.3122">
        <ele>287.57</ele>
        <time>2016-12-31T11:14:27Z</time>
      </trkpt>
      <trkpt lat="43.56241" lon="3.31209">
        <ele>286.13</ele>
        <time>2016-12-31T11:14:29Z</time>
      </trkpt>
      <trkpt lat="43.5623" lon="3.31195">
        <ele>284.21</ele>
        <time>2016-12-31T11:14:32Z</time>
      </trkpt>
      <trkpt lat="43.5621" lon="3.31173">
        <ele>280.84</ele>
        <time>2016-12-31T11:14:37Z</time>
      </trkpt>
      <trkpt lat="43.56196" lon="3.31146">
        <ele>277.96</ele>
        <time>2016-12-31T11:14:42Z</time>
      </trkpt>
      <trkpt lat="43.56187" lon="3.31129">
        <ele>277.48</ele>
        <time>2016-12-31T11:14:45Z</time>
      </trkpt>
      <trkpt lat="43.56178" lon="3.3111">
        <ele>277</ele>
        <time>2016-12-31T11:14:48Z</time>
      </trkpt>
      <trkpt lat="43.56149" lon="3.31065">
        <ele>277</ele>
        <time>2016-12-31T11:14:56Z</time>
      </trkpt>
      <trkpt lat="43.56138" lon="3.31041">
        <ele>276.04</ele>
        <time>2016-12-31T11:15:00Z</time>
      </trkpt>
      <trkpt lat="43.56107" lon="3.31032">
        <ele>273.15</ele>
        <time>2016-12-31T11:15:08Z</time>
      </trkpt>
      <trkpt lat="43.56103" lon="3.31031">
        <ele>273.15</ele>
        <time>2016-12-31T11:15:09Z</time>
      </trkpt>
      <trkpt lat="43.56076" lon="3.31034">
        <ele>274.11</ele>
        <time>2016-12-31T11:15:17Z</time>
      </trkpt>
      <trkpt lat="43.56051" lon="3.31044">
        <ele>274.59</ele>
        <time>2016-12-31T11:15:29Z</time>
      </trkpt>
      <trkpt lat="43.56021" lon="3.31044">
        <ele>275.07</ele>
        <time>2016-12-31T11:15:39Z</time>
      </trkpt>
      <trkpt lat="43.55999" lon="3.31041">
        <ele>275.56</ele>
        <time>2016-12-31T11:15:47Z</time>
      </trkpt>
      <trkpt lat="43.55999" lon="3.31057">
        <ele>275.07</ele>
        <time>2016-12-31T11:15:53Z</time>
      </trkpt>
      <trkpt lat="43.56001" lon="3.31063">
        <ele>274.59</ele>
        <time>2016-12-31T11:15:55Z</time>
      </trkpt>
      <trkpt lat="43.5601" lon="3.31099">
        <ele>271.23</ele>
        <time>2016-12-31T11:16:04Z</time>
      </trkpt>
      <trkpt lat="43.56022" lon="3.31143">
        <ele>264.5</ele>
        <time>2016-12-31T11:16:14Z</time>
      </trkpt>
      <trkpt lat="43.56026" lon="3.31181">
        <ele>255.85</ele>
        <time>2016-12-31T11:16:23Z</time>
      </trkpt>
      <trkpt lat="43.56028" lon="3.31186">
        <ele>255.37</ele>
        <time>2016-12-31T11:16:24Z</time>
      </trkpt>
      <trkpt lat="43.56033" lon="3.31199">
        <ele>255.85</ele>
        <time>2016-12-31T11:16:26Z</time>
      </trkpt>
      <trkpt lat="43.56044" lon="3.31227">
        <ele>256.33</ele>
        <time>2016-12-31T11:16:30Z</time>
      </trkpt>
      <trkpt lat="43.56052" lon="3.31246">
        <ele>256.81</ele>
        <time>2016-12-31T11:16:33Z</time>
      </trkpt>
      <trkpt lat="43.56057" lon="3.31273">
        <ele>256.81</ele>
        <time>2016-12-31T11:16:38Z</time>
      </trkpt>
      <trkpt lat="43.56059" lon="3.31313">
        <ele>256.81</ele>
        <time>2016-12-31T11:16:45Z</time>
      </trkpt>
      <trkpt lat="43.56055" lon="3.31388">
        <ele>253.44</ele>
        <time>2016-12-31T11:16:55Z</time>
      </trkpt>
      <trkpt lat="43.56054" lon="3.31396">
        <ele>252.96</ele>
        <time>2016-12-31T11:16:56Z</time>
      </trkpt>
      <trkpt lat="43.56052" lon="3.31419">
        <ele>252.48</ele>
        <time>2016-12-31T11:16:59Z</time>
      </trkpt>
      <trkpt lat="43.56047" lon="3.31462">
        <ele>250.56</ele>
        <time>2016-12-31T11:17:04Z</time>
      </trkpt>
      <trkpt lat="43.56034" lon="3.31508">
        <ele>247.68</ele>
        <time>2016-12-31T11:17:10Z</time>
      </trkpt>
      <trkpt lat="43.56025" lon="3.31563">
        <ele>244.79</ele>
        <time>2016-12-31T11:17:18Z</time>
      </trkpt>
      <trkpt lat="43.56025" lon="3.31576">
        <ele>243.83</ele>
        <time>2016-12-31T11:17:20Z</time>
      </trkpt>
      <trkpt lat="43.56014" lon="3.31608">
        <ele>241.91</ele>
        <time>2016-12-31T11:17:26Z</time>
      </trkpt>
      <trkpt lat="43.56016" lon="3.31622">
        <ele>240.47</ele>
        <time>2016-12-31T11:17:29Z</time>
      </trkpt>
      <trkpt lat="43.56018" lon="3.31631">
        <ele>238.54</ele>
        <time>2016-12-31T11:17:31Z</time>
      </trkpt>
      <trkpt lat="43.56014" lon="3.31647">
        <ele>235.66</ele>
        <time>2016-12-31T11:17:35Z</time>
      </trkpt>
      <trkpt lat="43.56021" lon="3.31675">
        <ele>234.7</ele>
        <time>2016-12-31T11:17:39Z</time>
      </trkpt>
      <trkpt lat="43.56033" lon="3.31712">
        <ele>233.26</ele>
        <time>2016-12-31T11:17:46Z</time>
      </trkpt>
      <trkpt lat="43.56062" lon="3.31744">
        <ele>228.93</ele>
        <time>2016-12-31T11:17:55Z</time>
      </trkpt>
      <trkpt lat="43.56086" lon="3.31774">
        <ele>224.12</ele>
        <time>2016-12-31T11:18:01Z</time>
      </trkpt>
      <trkpt lat="43.56091" lon="3.31789">
        <ele>222.2</ele>
        <time>2016-12-31T11:18:03Z</time>
      </trkpt>
      <trkpt lat="43.56094" lon="3.31804">
        <ele>220.76</ele>
        <time>2016-12-31T11:18:05Z</time>
      </trkpt>
      <trkpt lat="43.56103" lon="3.31821">
        <ele>218.84</ele>
        <time>2016-12-31T11:18:08Z</time>
      </trkpt>
      <trkpt lat="43.56112" lon="3.31831">
        <ele>217.4</ele>
        <time>2016-12-31T11:18:10Z</time>
      </trkpt>
      <trkpt lat="43.5612" lon="3.31841">
        <ele>216.43</ele>
        <time>2016-12-31T11:18:12Z</time>
      </trkpt>
      <trkpt lat="43.56128" lon="3.31855">
        <ele>215.47</ele>
        <time>2016-12-31T11:18:14Z</time>
      </trkpt>
      <trkpt lat="43.56143" lon="3.31877">
        <ele>214.51</ele>
        <time>2016-12-31T11:18:18Z</time>
      </trkpt>
      <trkpt lat="43.56161" lon="3.31922">
        <ele>210.19</ele>
        <time>2016-12-31T11:18:28Z</time>
      </trkpt>
      <trkpt lat="43.56162" lon="3.31927">
        <ele>209.22</ele>
        <time>2016-12-31T11:18:29Z</time>
      </trkpt>
      <trkpt lat="43.56169" lon="3.31931">
        <ele>206.82</ele>
        <time>2016-12-31T11:18:33Z</time>
      </trkpt>
      <trkpt lat="43.56175" lon="3.31944">
        <ele>201.05</ele>
        <time>2016-12-31T11:18:41Z</time>
      </trkpt>
      <trkpt lat="43.56183" lon="3.31959">
        <ele>198.17</ele>
        <time>2016-12-31T11:18:45Z</time>
      </trkpt>
      <trkpt lat="43.56195" lon="3.31981">
        <ele>196.25</ele>
        <time>2016-12-31T11:18:50Z</time>
      </trkpt>
      <trkpt lat="43.56211" lon="3.3201">
        <ele>195.28</ele>
        <time>2016-12-31T11:19:01Z</time>
      </trkpt>
      <trkpt lat="43.56213" lon="3.32027">
        <ele>193.84</ele>
        <time>2016-12-31T11:19:08Z</time>
      </trkpt>
      <trkpt lat="43.56228" lon="3.3205">
        <ele>190.48</ele>
        <time>2016-12-31T11:19:16Z</time>
      </trkpt>
      <trkpt lat="43.56234" lon="3.3206">
        <ele>190</ele>
        <time>2016-12-31T11:19:19Z</time>
      </trkpt>
      <trkpt lat="43.56257" lon="3.32082">
        <ele>189.04</ele>
        <time>2016-12-31T11:19:28Z</time>
      </trkpt>
      <trkpt lat="43.5628" lon="3.32131">
        <ele>185.67</ele>
        <time>2016-12-31T11:19:36Z</time>
      </trkpt>
      <trkpt lat="43.56281" lon="3.32145">
        <ele>185.19</ele>
        <time>2016-12-31T11:19:38Z</time>
      </trkpt>
      <trkpt lat="43.56291" lon="3.32195">
        <ele>181.83</ele>
        <time>2016-12-31T11:19:46Z</time>
      </trkpt>
      <trkpt lat="43.56304" lon="3.32215">
        <ele>179.9</ele>
        <time>2016-12-31T11:19:49Z</time>
      </trkpt>
      <trkpt lat="43.56313" lon="3.32227">
        <ele>178.46</ele>
        <time>2016-12-31T11:19:51Z</time>
      </trkpt>
      <trkpt lat="43.56318" lon="3.32249">
        <ele>175.1</ele>
        <time>2016-12-31T11:19:55Z</time>
      </trkpt>
      <trkpt lat="43.56297" lon="3.32315">
        <ele>179.42</ele>
        <time>2016-12-31T11:20:09Z</time>
      </trkpt>
      <trkpt lat="43.56281" lon="3.32351">
        <ele>184.71</ele>
        <time>2016-12-31T11:20:22Z</time>
      </trkpt>
      <trkpt lat="43.56282" lon="3.32351">
        <ele>184.23</ele>
        <time>2016-12-31T11:20:29Z</time>
      </trkpt>
      <trkpt lat="43.56282" lon="3.32351">
        <ele>185.19</ele>
        <time>2016-12-31T11:20:50Z</time>
      </trkpt>
      <trkpt lat="43.56281" lon="3.32352">
        <ele>186.63</ele>
        <time>2016-12-31T11:21:23Z</time>
      </trkpt>
      <trkpt lat="43.56281" lon="3.32351">
        <ele>186.63</ele>
        <time>2016-12-31T11:21:39Z</time>
      </trkpt>
      <trkpt lat="43.5628" lon="3.32352">
        <ele>187.59</ele>
        <time>2016-12-31T11:21:58Z</time>
      </trkpt>
      <trkpt lat="43.56281" lon="3.32351">
        <ele>187.59</ele>
        <time>2016-12-31T11:22:06Z</time>
      </trkpt>
      <trkpt lat="43.56279" lon="3.32355">
        <ele>187.11</ele>
        <time>2016-12-31T11:22:20Z</time>
      </trkpt>
      <trkpt lat="43.56278" lon="3.32352">
        <ele>185.19</ele>
        <time>2016-12-31T11:22:44Z</time>
      </trkpt>
      <trkpt lat="43.56278" lon="3.32353">
        <ele>185.19</ele>
        <time>2016-12-31T11:22:45Z</time>
      </trkpt>
      <trkpt lat="43.56279" lon="3.32378">
        <ele>184.23</ele>
        <time>2016-12-31T11:22:53Z</time>
      </trkpt>
      <trkpt lat="43.56269" lon="3.32434">
        <ele>180.87</ele>
        <time>2016-12-31T11:23:02Z</time>
      </trkpt>
      <trkpt lat="43.56263" lon="3.32543">
        <ele>176.06</ele>
        <time>2016-12-31T11:23:17Z</time>
      </trkpt>
      <trkpt lat="43.5627" lon="3.3263">
        <ele>174.14</ele>
        <time>2016-12-31T11:23:27Z</time>
      </trkpt>
      <trkpt lat="43.56277" lon="3.32753">
        <ele>168.85</ele>
        <time>2016-12-31T11:23:39Z</time>
      </trkpt>
      <trkpt lat="43.56267" lon="3.32791">
        <ele>166.93</ele>
        <time>2016-12-31T11:23:43Z</time>
      </trkpt>
      <trkpt lat="43.56261" lon="3.32828">
        <ele>165.48</ele>
        <time>2016-12-31T11:23:47Z</time>
      </trkpt>
      <trkpt lat="43.56259" lon="3.32855">
        <ele>165.48</ele>
        <time>2016-12-31T11:23:50Z</time>
      </trkpt>
      <trkpt lat="43.56264" lon="3.3292">
        <ele>163.56</ele>
        <time>2016-12-31T11:23:57Z</time>
      </trkpt>
      <trkpt lat="43.56261" lon="3.3295">
        <ele>162.6</ele>
        <time>2016-12-31T11:24:00Z</time>
      </trkpt>
      <trkpt lat="43.56284" lon="3.32975">
        <ele>160.68</ele>
        <time>2016-12-31T11:24:06Z</time>
      </trkpt>
      <trkpt lat="43.56304" lon="3.3302">
        <ele>161.16</ele>
        <time>2016-12-31T11:24:14Z</time>
      </trkpt>
      <trkpt lat="43.56303" lon="3.33032">
        <ele>160.68</ele>
        <time>2016-12-31T11:24:16Z</time>
      </trkpt>
      <trkpt lat="43.56297" lon="3.33079">
        <ele>159.72</ele>
        <time>2016-12-31T11:24:23Z</time>
      </trkpt>
      <trkpt lat="43.56297" lon="3.33093">
        <ele>159.24</ele>
        <time>2016-12-31T11:24:25Z</time>
      </trkpt>
      <trkpt lat="43.56316" lon="3.33193">
        <ele>157.31</ele>
        <time>2016-12-31T11:24:38Z</time>
      </trkpt>
      <trkpt lat="43.56331" lon="3.33262">
        <ele>155.87</ele>
        <time>2016-12-31T11:24:47Z</time>
      </trkpt>
      <trkpt lat="43.56372" lon="3.33371">
        <ele>152.51</ele>
        <time>2016-12-31T11:25:02Z</time>
      </trkpt>
      <trkpt lat="43.56416" lon="3.33451">
        <ele>154.43</ele>
        <time>2016-12-31T11:25:15Z</time>
      </trkpt>
      <trkpt lat="43.56419" lon="3.33457">
        <ele>154.91</ele>
        <time>2016-12-31T11:25:16Z</time>
      </trkpt>
      <trkpt lat="43.56448" lon="3.33507">
        <ele>158.27</ele>
        <time>2016-12-31T11:25:27Z</time>
      </trkpt>
      <trkpt lat="43.56475" lon="3.33562">
        <ele>154.91</ele>
        <time>2016-12-31T11:25:35Z</time>
      </trkpt>
      <trkpt lat="43.56491" lon="3.33594">
        <ele>153.47</ele>
        <time>2016-12-31T11:25:39Z</time>
      </trkpt>
      <trkpt lat="43.56504" lon="3.3362">
        <ele>152.51</ele>
        <time>2016-12-31T11:25:42Z</time>
      </trkpt>
      <trkpt lat="43.56526" lon="3.33649">
        <ele>151.06</ele>
        <time>2016-12-31T11:25:47Z</time>
      </trkpt>
      <trkpt lat="43.56537" lon="3.33695">
        <ele>149.14</ele>
        <time>2016-12-31T11:25:52Z</time>
      </trkpt>
      <trkpt lat="43.56542" lon="3.33725">
        <ele>148.18</ele>
        <time>2016-12-31T11:25:55Z</time>
      </trkpt>
      <trkpt lat="43.56556" lon="3.33745">
        <ele>147.7</ele>
        <time>2016-12-31T11:26:00Z</time>
      </trkpt>
      <trkpt lat="43.56574" lon="3.33753">
        <ele>149.62</ele>
        <time>2016-12-31T11:26:06Z</time>
      </trkpt>
      <trkpt lat="43.56587" lon="3.33794">
        <ele>152.03</ele>
        <time>2016-12-31T11:26:20Z</time>
      </trkpt>
      <trkpt lat="43.5659" lon="3.33827">
        <ele>154.43</ele>
        <time>2016-12-31T11:26:32Z</time>
      </trkpt>
      <trkpt lat="43.56593" lon="3.3388">
        <ele>158.27</ele>
        <time>2016-12-31T11:26:50Z</time>
      </trkpt>
      <trkpt lat="43.56592" lon="3.33933">
        <ele>160.2</ele>
        <time>2016-12-31T11:27:06Z</time>
      </trkpt>
      <trkpt lat="43.56604" lon="3.33973">
        <ele>162.6</ele>
        <time>2016-12-31T11:27:21Z</time>
      </trkpt>
      <trkpt lat="43.56632" lon="3.33972">
        <ele>164.52</ele>
        <time>2016-12-31T11:27:33Z</time>
      </trkpt>
      <trkpt lat="43.56665" lon="3.33985">
        <ele>166.93</ele>
        <time>2016-12-31T11:27:49Z</time>
      </trkpt>
      <trkpt lat="43.56697" lon="3.34009">
        <ele>170.29</ele>
        <time>2016-12-31T11:28:06Z</time>
      </trkpt>
      <trkpt lat="43.56736" lon="3.34036">
        <ele>176.06</ele>
        <time>2016-12-31T11:28:26Z</time>
      </trkpt>
      <trkpt lat="43.56764" lon="3.3406">
        <ele>179.9</ele>
        <time>2016-12-31T11:28:43Z</time>
      </trkpt>
      <trkpt lat="43.56776" lon="3.34091">
        <ele>181.35</ele>
        <time>2016-12-31T11:28:57Z</time>
      </trkpt>
      <trkpt lat="43.56785" lon="3.34125">
        <ele>182.79</ele>
        <time>2016-12-31T11:29:12Z</time>
      </trkpt>
      <trkpt lat="43.56792" lon="3.34166">
        <ele>186.15</ele>
        <time>2016-12-31T11:29:28Z</time>
      </trkpt>
      <trkpt lat="43.56801" lon="3.34208">
        <ele>189.04</ele>
        <time>2016-12-31T11:29:45Z</time>
      </trkpt>
      <trkpt lat="43.56803" lon="3.34253">
        <ele>190.96</ele>
        <time>2016-12-31T11:30:01Z</time>
      </trkpt>
      <trkpt lat="43.56814" lon="3.34304">
        <ele>191.44</ele>
        <time>2016-12-31T11:30:17Z</time>
      </trkpt>
      <trkpt lat="43.56845" lon="3.34327">
        <ele>191.44</ele>
        <time>2016-12-31T11:30:29Z</time>
      </trkpt>
      <trkpt lat="43.56854" lon="3.34334">
        <ele>192.88</ele>
        <time>2016-12-31T11:30:34Z</time>
      </trkpt>
      <trkpt lat="43.56859" lon="3.3435">
        <ele>194.32</ele>
        <time>2016-12-31T11:30:42Z</time>
      </trkpt>
      <trkpt lat="43.56857" lon="3.34357">
        <ele>194.32</ele>
        <time>2016-12-31T11:30:46Z</time>
      </trkpt>
      <trkpt lat="43.56855" lon="3.34359">
        <ele>194.32</ele>
        <time>2016-12-31T11:30:48Z</time>
      </trkpt>
      <trkpt lat="43.56857" lon="3.34378">
        <ele>191.44</ele>
        <time>2016-12-31T11:30:58Z</time>
      </trkpt>
      <trkpt lat="43.56859" lon="3.34382">
        <ele>190.48</ele>
        <time>2016-12-31T11:31:12Z</time>
      </trkpt>
      <trkpt lat="43.56859" lon="3.34383">
        <ele>190</ele>
        <time>2016-12-31T11:31:13Z</time>
      </trkpt>
      <trkpt lat="43.56847" lon="3.34395">
        <ele>187.11</ele>
        <time>2016-12-31T11:31:25Z</time>
      </trkpt>
      <trkpt lat="43.56841" lon="3.34393">
        <ele>187.59</ele>
        <time>2016-12-31T11:31:31Z</time>
      </trkpt>
      <trkpt lat="43.56827" lon="3.34384">
        <ele>185.19</ele>
        <time>2016-12-31T11:31:41Z</time>
      </trkpt>
      <trkpt lat="43.56821" lon="3.3438">
        <ele>184.23</ele>
        <time>2016-12-31T11:31:43Z</time>
      </trkpt>
      <trkpt lat="43.56808" lon="3.34378">
        <ele>181.35</ele>
        <time>2016-12-31T11:31:47Z</time>
      </trkpt>
      <trkpt lat="43.56802" lon="3.34379">
        <ele>178.94</ele>
        <time>2016-12-31T11:31:51Z</time>
      </trkpt>
      <trkpt lat="43.56801" lon="3.34375">
        <ele>177.98</ele>
        <time>2016-12-31T11:31:53Z</time>
      </trkpt>
      <trkpt lat="43.5679" lon="3.34374">
        <ele>175.58</ele>
        <time>2016-12-31T11:31:58Z</time>
      </trkpt>
      <trkpt lat="43.56775" lon="3.34374">
        <ele>173.17</ele>
        <time>2016-12-31T11:32:03Z</time>
      </trkpt>
      <trkpt lat="43.56751" lon="3.3438">
        <ele>168.85</ele>
        <time>2016-12-31T11:32:09Z</time>
      </trkpt>
      <trkpt lat="43.56729" lon="3.34392">
        <ele>163.08</ele>
        <time>2016-12-31T11:32:16Z</time>
      </trkpt>
      <trkpt lat="43.56695" lon="3.34406">
        <ele>156.83</ele>
        <time>2016-12-31T11:32:27Z</time>
      </trkpt>
      <trkpt lat="43.56681" lon="3.34419">
        <ele>154.91</ele>
        <time>2016-12-31T11:32:32Z</time>
      </trkpt>
      <trkpt lat="43.56665" lon="3.34446">
        <ele>150.58</ele>
        <time>2016-12-31T11:32:40Z</time>
      </trkpt>
      <trkpt lat="43.56634" lon="3.34486">
        <ele>149.14</ele>
        <time>2016-12-31T11:32:52Z</time>
      </trkpt>
      <trkpt lat="43.56616" lon="3.34529">
        <ele>149.62</ele>
        <time>2016-12-31T11:33:00Z</time>
      </trkpt>
      <trkpt lat="43.56591" lon="3.34636">
        <ele>151.54</ele>
        <time>2016-12-31T11:33:17Z</time>
      </trkpt>
      <trkpt lat="43.56583" lon="3.34697">
        <ele>150.1</ele>
        <time>2016-12-31T11:33:25Z</time>
      </trkpt>
      <trkpt lat="43.56579" lon="3.3472">
        <ele>149.62</ele>
        <time>2016-12-31T11:33:28Z</time>
      </trkpt>
      <trkpt lat="43.56567" lon="3.34814">
        <ele>151.54</ele>
        <time>2016-12-31T11:33:43Z</time>
      </trkpt>
      <trkpt lat="43.56567" lon="3.34825">
        <ele>151.54</ele>
        <time>2016-12-31T11:33:45Z</time>
      </trkpt>
      <trkpt lat="43.5657" lon="3.34848">
        <ele>152.03</ele>
        <time>2016-12-31T11:33:49Z</time>
      </trkpt>
      <trkpt lat="43.56571" lon="3.34859">
        <ele>152.51</ele>
        <time>2016-12-31T11:33:51Z</time>
      </trkpt>
      <trkpt lat="43.56575" lon="3.34882">
        <ele>152.51</ele>
        <time>2016-12-31T11:33:55Z</time>
      </trkpt>
      <trkpt lat="43.56594" lon="3.34931">
        <ele>153.47</ele>
        <time>2016-12-31T11:34:06Z</time>
      </trkpt>
      <trkpt lat="43.56595" lon="3.34937">
        <ele>153.47</ele>
        <time>2016-12-31T11:34:07Z</time>
      </trkpt>
      <trkpt lat="43.56604" lon="3.34962">
        <ele>152.99</ele>
        <time>2016-12-31T11:34:12Z</time>
      </trkpt>
      <trkpt lat="43.56616" lon="3.34979">
        <ele>152.51</ele>
        <time>2016-12-31T11:34:16Z</time>
      </trkpt>
      <trkpt lat="43.56626" lon="3.35002">
        <ele>152.03</ele>
        <time>2016-12-31T11:34:20Z</time>
      </trkpt>
      <trkpt lat="43.56632" lon="3.35036">
        <ele>150.58</ele>
        <time>2016-12-31T11:34:25Z</time>
      </trkpt>
      <trkpt lat="43.56642" lon="3.35072">
        <ele>147.7</ele>
        <time>2016-12-31T11:34:30Z</time>
      </trkpt>
      <trkpt lat="43.56648" lon="3.3511">
        <ele>143.37</ele>
        <time>2016-12-31T11:34:35Z</time>
      </trkpt>
      <trkpt lat="43.56646" lon="3.35135">
        <ele>141.93</ele>
        <time>2016-12-31T11:34:38Z</time>
      </trkpt>
      <trkpt lat="43.56644" lon="3.35195">
        <ele>137.13</ele>
        <time>2016-12-31T11:34:45Z</time>
      </trkpt>
      <trkpt lat="43.5665" lon="3.35237">
        <ele>135.68</ele>
        <time>2016-12-31T11:34:50Z</time>
      </trkpt>
      <trkpt lat="43.56672" lon="3.3529">
        <ele>133.76</ele>
        <time>2016-12-31T11:34:57Z</time>
      </trkpt>
      <trkpt lat="43.56687" lon="3.3532">
        <ele>131.84</ele>
        <time>2016-12-31T11:35:01Z</time>
      </trkpt>
      <trkpt lat="43.56702" lon="3.35382">
        <ele>131.84</ele>
        <time>2016-12-31T11:35:09Z</time>
      </trkpt>
      <trkpt lat="43.56705" lon="3.35396">
        <ele>131.84</ele>
        <time>2016-12-31T11:35:11Z</time>
      </trkpt>
      <trkpt lat="43.56705" lon="3.35403">
        <ele>131.36</ele>
        <time>2016-12-31T11:35:19Z</time>
      </trkpt>
      <trkpt lat="43.56705" lon="3.35403">
        <ele>132.32</ele>
        <time>2016-12-31T11:35:44Z</time>
      </trkpt>
      <trkpt lat="43.56705" lon="3.35402">
        <ele>132.32</ele>
        <time>2016-12-31T11:36:14Z</time>
      </trkpt>
      <trkpt lat="43.56705" lon="3.35403">
        <ele>132.8</ele>
        <time>2016-12-31T11:36:39Z</time>
      </trkpt>
      <trkpt lat="43.56704" lon="3.35403">
        <ele>132.8</ele>
        <time>2016-12-31T11:37:00Z</time>
      </trkpt>
      <trkpt lat="43.56702" lon="3.35429">
        <ele>131.84</ele>
        <time>2016-12-31T11:37:18Z</time>
      </trkpt>
      <trkpt lat="43.567" lon="3.35447">
        <ele>130.88</ele>
        <time>2016-12-31T11:37:21Z</time>
      </trkpt>
      <trkpt lat="43.56701" lon="3.35549">
        <ele>125.11</ele>
        <time>2016-12-31T11:37:34Z</time>
      </trkpt>
      <trkpt lat="43.56701" lon="3.35568">
        <ele>124.15</ele>
        <time>2016-12-31T11:37:36Z</time>
      </trkpt>
      <trkpt lat="43.56702" lon="3.35608">
        <ele>122.22</ele>
        <time>2016-12-31T11:37:40Z</time>
      </trkpt>
      <trkpt lat="43.56708" lon="3.35651">
        <ele>120.3</ele>
        <time>2016-12-31T11:37:45Z</time>
      </trkpt>
      <trkpt lat="43.56703" lon="3.35698">
        <ele>119.34</ele>
        <time>2016-12-31T11:37:50Z</time>
      </trkpt>
      <trkpt lat="43.56719" lon="3.35824">
        <ele>117.9</ele>
        <time>2016-12-31T11:38:03Z</time>
      </trkpt>
      <trkpt lat="43.56728" lon="3.35858">
        <ele>118.38</ele>
        <time>2016-12-31T11:38:07Z</time>
      </trkpt>
      <trkpt lat="43.56757" lon="3.35988">
        <ele>115.98</ele>
        <time>2016-12-31T11:38:22Z</time>
      </trkpt>
      <trkpt lat="43.56772" lon="3.3611">
        <ele>114.53</ele>
        <time>2016-12-31T11:38:34Z</time>
      </trkpt>
      <trkpt lat="43.56773" lon="3.3612">
        <ele>114.53</ele>
        <time>2016-12-31T11:38:35Z</time>
      </trkpt>
      <trkpt lat="43.56788" lon="3.3616">
        <ele>116.46</ele>
        <time>2016-12-31T11:38:40Z</time>
      </trkpt>
      <trkpt lat="43.5682" lon="3.36216">
        <ele>116.94</ele>
        <time>2016-12-31T11:38:50Z</time>
      </trkpt>
      <trkpt lat="43.56836" lon="3.36232">
        <ele>115.5</ele>
        <time>2016-12-31T11:38:53Z</time>
      </trkpt>
      <trkpt lat="43.56868" lon="3.36253">
        <ele>114.05</ele>
        <time>2016-12-31T11:38:58Z</time>
      </trkpt>
      <trkpt lat="43.56893" lon="3.36275">
        <ele>112.13</ele>
        <time>2016-12-31T11:39:02Z</time>
      </trkpt>
      <trkpt lat="43.56933" lon="3.36275">
        <ele>110.21</ele>
        <time>2016-12-31T11:39:07Z</time>
      </trkpt>
      <trkpt lat="43.56958" lon="3.36261">
        <ele>108.29</ele>
        <time>2016-12-31T11:39:10Z</time>
      </trkpt>
      <trkpt lat="43.56993" lon="3.36255">
        <ele>107.32</ele>
        <time>2016-12-31T11:39:14Z</time>
      </trkpt>
      <trkpt lat="43.57054" lon="3.36268">
        <ele>107.81</ele>
        <time>2016-12-31T11:39:25Z</time>
      </trkpt>
      <trkpt lat="43.571" lon="3.36281">
        <ele>108.29</ele>
        <time>2016-12-31T11:39:37Z</time>
      </trkpt>
      <trkpt lat="43.57141" lon="3.36309">
        <ele>107.32</ele>
        <time>2016-12-31T11:39:46Z</time>
      </trkpt>
      <trkpt lat="43.5722" lon="3.36334">
        <ele>106.36</ele>
        <time>2016-12-31T11:40:02Z</time>
      </trkpt>
      <trkpt lat="43.57242" lon="3.3634">
        <ele>106.36</ele>
        <time>2016-12-31T11:40:07Z</time>
      </trkpt>
      <trkpt lat="43.57318" lon="3.36359">
        <ele>106.84</ele>
        <time>2016-12-31T11:40:24Z</time>
      </trkpt>
      <trkpt lat="43.57359" lon="3.36369">
        <ele>107.81</ele>
        <time>2016-12-31T11:40:34Z</time>
      </trkpt>
      <trkpt lat="43.57365" lon="3.36386">
        <ele>107.81</ele>
        <time>2016-12-31T11:40:38Z</time>
      </trkpt>
      <trkpt lat="43.57364" lon="3.36415">
        <ele>107.81</ele>
        <time>2016-12-31T11:40:43Z</time>
      </trkpt>
      <trkpt lat="43.57336" lon="3.36446">
        <ele>109.25</ele>
        <time>2016-12-31T11:40:52Z</time>
      </trkpt>
      <trkpt lat="43.57255" lon="3.3646">
        <ele>111.17</ele>
        <time>2016-12-31T11:41:11Z</time>
      </trkpt>
      <trkpt lat="43.57205" lon="3.36474">
        <ele>112.13</ele>
        <time>2016-12-31T11:41:23Z</time>
      </trkpt>
      <trkpt lat="43.57127" lon="3.36537">
        <ele>112.61</ele>
        <time>2016-12-31T11:41:43Z</time>
      </trkpt>
      <trkpt lat="43.57047" lon="3.36608">
        <ele>113.57</ele>
        <time>2016-12-31T11:42:04Z</time>
      </trkpt>
      <trkpt lat="43.56976" lon="3.36694">
        <ele>115.01</ele>
        <time>2016-12-31T11:42:24Z</time>
      </trkpt>
      <trkpt lat="43.56927" lon="3.3678">
        <ele>117.42</ele>
        <time>2016-12-31T11:42:42Z</time>
      </trkpt>
      <trkpt lat="43.56884" lon="3.36884">
        <ele>119.82</ele>
        <time>2016-12-31T11:43:01Z</time>
      </trkpt>
      <trkpt lat="43.56844" lon="3.37017">
        <ele>121.74</ele>
        <time>2016-12-31T11:43:23Z</time>
      </trkpt>
      <trkpt lat="43.568" lon="3.371">
        <ele>123.19</ele>
        <time>2016-12-31T11:43:39Z</time>
      </trkpt>
      <trkpt lat="43.56792" lon="3.37113">
        <ele>123.19</ele>
        <time>2016-12-31T11:43:42Z</time>
      </trkpt>
      <trkpt lat="43.56772" lon="3.37148">
        <ele>125.11</ele>
        <time>2016-12-31T11:43:50Z</time>
      </trkpt>
      <trkpt lat="43.56756" lon="3.37243">
        <ele>127.03</ele>
        <time>2016-12-31T11:44:08Z</time>
      </trkpt>
      <trkpt lat="43.5676" lon="3.37332">
        <ele>128.47</ele>
        <time>2016-12-31T11:44:24Z</time>
      </trkpt>
      <trkpt lat="43.56774" lon="3.37442">
        <ele>129.43</ele>
        <time>2016-12-31T11:44:42Z</time>
      </trkpt>
      <trkpt lat="43.56772" lon="3.37561">
        <ele>129.43</ele>
        <time>2016-12-31T11:44:59Z</time>
      </trkpt>
      <trkpt lat="43.5677" lon="3.37715">
        <ele>125.59</ele>
        <time>2016-12-31T11:45:15Z</time>
      </trkpt>
      <trkpt lat="43.56768" lon="3.37921">
        <ele>124.63</ele>
        <time>2016-12-31T11:45:36Z</time>
      </trkpt>
      <trkpt lat="43.56761" lon="3.38097">
        <ele>124.63</ele>
        <time>2016-12-31T11:45:55Z</time>
      </trkpt>
      <trkpt lat="43.56764" lon="3.38221">
        <ele>126.07</ele>
        <time>2016-12-31T11:46:11Z</time>
      </trkpt>
      <trkpt lat="43.56758" lon="3.38322">
        <ele>127.51</ele>
        <time>2016-12-31T11:46:27Z</time>
      </trkpt>
      <trkpt lat="43.56721" lon="3.38417">
        <ele>131.36</ele>
        <time>2016-12-31T11:46:45Z</time>
      </trkpt>
      <trkpt lat="43.56692" lon="3.3854">
        <ele>132.32</ele>
        <time>2016-12-31T11:47:04Z</time>
      </trkpt>
      <trkpt lat="43.56678" lon="3.38662">
        <ele>133.28</ele>
        <time>2016-12-31T11:47:23Z</time>
      </trkpt>
      <trkpt lat="43.56667" lon="3.38773">
        <ele>137.61</ele>
        <time>2016-12-31T11:47:42Z</time>
      </trkpt>
      <trkpt lat="43.56665" lon="3.38889">
        <ele>138.09</ele>
        <time>2016-12-31T11:48:01Z</time>
      </trkpt>
      <trkpt lat="43.56663" lon="3.3902">
        <ele>139.05</ele>
        <time>2016-12-31T11:48:20Z</time>
      </trkpt>
      <trkpt lat="43.56676" lon="3.39152">
        <ele>138.57</ele>
        <time>2016-12-31T11:48:38Z</time>
      </trkpt>
      <trkpt lat="43.56713" lon="3.39228">
        <ele>136.16</ele>
        <time>2016-12-31T11:48:49Z</time>
      </trkpt>
      <trkpt lat="43.56739" lon="3.39257">
        <ele>133.76</ele>
        <time>2016-12-31T11:48:54Z</time>
      </trkpt>
      <trkpt lat="43.56855" lon="3.39332">
        <ele>123.67</ele>
        <time>2016-12-31T11:49:08Z</time>
      </trkpt>
      <trkpt lat="43.56928" lon="3.39442">
        <ele>115.5</ele>
        <time>2016-12-31T11:49:17Z</time>
      </trkpt>
      <trkpt lat="43.5699" lon="3.39578">
        <ele>112.13</ele>
        <time>2016-12-31T11:49:27Z</time>
      </trkpt>
      <trkpt lat="43.57045" lon="3.39673">
        <ele>112.61</ele>
        <time>2016-12-31T11:49:37Z</time>
      </trkpt>
      <trkpt lat="43.57066" lon="3.39706">
        <ele>112.61</ele>
        <time>2016-12-31T11:49:42Z</time>
      </trkpt>
      <trkpt lat="43.57055" lon="3.39735">
        <ele>111.65</ele>
        <time>2016-12-31T11:49:48Z</time>
      </trkpt>
      <trkpt lat="43.57037" lon="3.39747">
        <ele>111.17</ele>
        <time>2016-12-31T11:49:54Z</time>
      </trkpt>
      <trkpt lat="43.57034" lon="3.39746">
        <ele>112.61</ele>
        <time>2016-12-31T11:50:06Z</time>
      </trkpt>
      <trkpt lat="43.57034" lon="3.39747">
        <ele>113.09</ele>
        <time>2016-12-31T11:50:14Z</time>
      </trkpt>
      <trkpt lat="43.57014" lon="3.39763">
        <ele>113.09</ele>
        <time>2016-12-31T11:50:27Z</time>
      </trkpt>
      <trkpt lat="43.57004" lon="3.39769">
        <ele>113.09</ele>
        <time>2016-12-31T11:50:32Z</time>
      </trkpt>
      <trkpt lat="43.56987" lon="3.39768">
        <ele>112.13</ele>
        <time>2016-12-31T11:50:40Z</time>
      </trkpt>
      <trkpt lat="43.56985" lon="3.39752">
        <ele>112.13</ele>
        <time>2016-12-31T11:50:44Z</time>
      </trkpt>
      <trkpt lat="43.56983" lon="3.39755">
        <ele>111.65</ele>
        <time>2016-12-31T11:50:50Z</time>
      </trkpt>
      <trkpt lat="43.56984" lon="3.39757">
        <ele>111.65</ele>
        <time>2016-12-31T11:50:51Z</time>
      </trkpt>
      <trkpt lat="43.56989" lon="3.39763">
        <ele>111.65</ele>
        <time>2016-12-31T11:51:00Z</time>
      </trkpt>
    </trkseg>
  </trk>
</gpx>